Geldmacher, Jörg (2026): Master tracks in different resolutions of SONNE cruise SO320/2, Honolulu - Vancouver, 2026-06-19 - 2026-08-03 [dataset]. GEOMAR - Helmholtz Centre for Ocean Research Kiel, PANGAEA, https://doi.pangaea.de/10.1594/PANGAEA.996845 (DOI registration in progress)
Always quote citation above when using data! You can download the citation in several formats below.
Published: 2026-08-24
Abstract:
Raw data acquired by position sensors on board RV SONNE during expedition SO320/2 were processed to receive a validated master track which can be used as reference of further expedition data. During SO320/2 the motion reference unit Kongsberg SeaTex AS MRU-5 combined with Kongsberg SeaTex AS Seapath 320 and two GPS receivers SAAB MGL-4 were used as navigation sensors. Data were downloaded from Insightics Marine DSHIP Extraction (https://dship.o2a-data.de/) with a resolution of 1 sec. Processing and evaluation of the data is outlined in the data processing report. Processed data are provided as a master track with 1 sec resolution derived from the position sensors' data selected by priority and a generalized track with a reduced set of the most significant positions of the master track.
Other version:
Geldmacher, Jörg (2026): Master track of SONNE cruise SO320/2 in 1 sec resolution (zipped, 169 MB) [dataset]. GEOMAR - Helmholtz Centre for Ocean Research Kiel, PANGAEA, https://doi.pangaea.de/10.1594/PANGAEA.996846
Data processing report:
Further details:
Project(s):
AI BaseCamp - Helmholtz DataHub Earth & Environment (AI_BaseCamp)
DAM Marine Data - Research Vessels (DAM_ResearchVessels)
Funding:
Bundesministerium für
Forschung, Technologie und Raumfahrt (BMFTR), grant/award no. 03F1001E: Auf- und Ausbau Dateninfrastruktur und -management für Daten aus dem Betrieb deutscher Forschungsschiffe; Vorhaben: Bathymetrie-, Sedimentecholot-, Seismik- sowie weitere Unterwegs- und Forschungsmissionsdaten
Coverage:
Median Latitude: 36.518656 * Median Longitude: -171.550297 * South-bound Latitude: 21.225857 * West-bound Longitude: 173.159074 * North-bound Latitude: 49.319391 * East-bound Longitude: -122.996852
Date/Time Start: 2026-06-19T19:20:02 * Date/Time End: 2026-08-03T15:10:53
Event(s):
SO320/2-track * Latitude Start: 21.297038 * Longitude Start: -157.868926 * Latitude End: 49.288414 * Longitude End: -123.092923 * Date/Time Start: 2026-06-19T19:00:02 * Date/Time End: 2026-08-03T15:10:53 * Campaign: SO320/2 (HESS EVOLUTION) * Basis: Sonne_2 * Method/Device: Underway cruise track measurements (CT) * Comment: Honolulu - Vancouver
Comment:
This dataset contains the master track in 10 min resolution, for other resolutions please see "Other version" references.
Parameter(s):
License:
Creative Commons Attribution 4.0 International (CC-BY-4.0)
Status:
Curation Level: Enhanced curation (CurationLevelC)
Size:
12912 data points
Data
| 1 Date/Time | 2 Latitude | 3 Longitude | 4 Speed [kn] | 5 Course [deg] |
|---|---|---|---|---|
| 2026-06-19T19:20 | 21.29705 | -157.86896 | 0.012 | 278.9 |
| 2026-06-19T19:30 | 21.29825 | -157.86888 | 0.433 | 3.9 |
| 2026-06-19T19:40 | 21.30184 | -157.86727 | 1.396 | 22.7 |
| 2026-06-19T19:50 | 21.29967 | -157.86882 | 0.938 | 213.8 |
| 2026-06-19T20:00 | 21.28342 | -157.87922 | 6.791 | 210.9 |
| 2026-06-19T20:10 | 21.27018 | -157.89400 | 6.870 | 226.3 |
| 2026-06-19T20:20 | 21.25679 | -157.92141 | 10.386 | 242.5 |
| 2026-06-19T20:30 | 21.24598 | -157.95138 | 10.794 | 249.0 |
| 2026-06-19T20:40 | 21.23509 | -157.98198 | 11.002 | 249.2 |
| 2026-06-19T20:50 | 21.22586 | -158.01181 | 10.557 | 251.7 |
| 2026-06-19T21:00 | 21.22586 | -158.04492 | 11.131 | 270.0 |
| 2026-06-19T21:10 | 21.22840 | -158.07615 | 10.539 | 275.0 |
| 2026-06-19T21:20 | 21.23258 | -158.10818 | 10.870 | 277.9 |
| 2026-06-19T21:30 | 21.23824 | -158.13897 | 10.546 | 281.1 |
| 2026-06-19T21:40 | 21.24346 | -158.16813 | 9.977 | 280.8 |
| 2026-06-19T21:50 | 21.24867 | -158.19735 | 9.997 | 280.8 |
| 2026-06-19T22:00 | 21.25400 | -158.22684 | 10.095 | 280.9 |
| 2026-06-19T22:10 | 21.25943 | -158.25653 | 10.165 | 281.0 |
| 2026-06-19T22:20 | 21.26462 | -158.28592 | 10.050 | 280.7 |
| 2026-06-19T22:30 | 21.26989 | -158.31506 | 9.975 | 280.9 |
| 2026-06-19T22:40 | 21.27511 | -158.34424 | 9.981 | 280.8 |
| 2026-06-19T22:50 | 21.28035 | -158.37294 | 9.825 | 281.0 |
| 2026-06-19T23:00 | 21.28600 | -158.40162 | 9.848 | 281.9 |
| 2026-06-19T23:10 | 21.30985 | -158.41726 | 10.038 | 328.4 |
| 2026-06-19T23:20 | 21.33628 | -158.43289 | 10.832 | 331.0 |
| 2026-06-19T23:30 | 21.36375 | -158.44942 | 11.303 | 330.6 |
| 2026-06-19T23:40 | 21.38877 | -158.46439 | 10.285 | 330.8 |
| 2026-06-19T23:50 | 21.41525 | -158.48022 | 10.880 | 330.8 |
| 2026-06-20T00:00 | 21.44158 | -158.49596 | 10.817 | 330.8 |
| 2026-06-20T00:10 | 21.46885 | -158.51237 | 11.221 | 330.6 |
| 2026-06-20T00:20 | 21.49557 | -158.52833 | 10.975 | 330.8 |
| 2026-06-20T00:30 | 21.52145 | -158.54375 | 10.623 | 330.9 |
| 2026-06-20T00:40 | 21.54722 | -158.55933 | 10.615 | 330.5 |
| 2026-06-20T00:50 | 21.57444 | -158.57567 | 11.193 | 330.7 |
| 2026-06-20T01:00 | 21.60020 | -158.59109 | 10.583 | 330.8 |
| 2026-06-20T01:10 | 21.62620 | -158.60669 | 10.689 | 330.7 |
| 2026-06-20T01:20 | 21.65299 | -158.62262 | 10.990 | 330.9 |
| 2026-06-20T01:30 | 21.67994 | -158.63889 | 11.095 | 330.6 |
| 2026-06-20T01:40 | 21.70730 | -158.65530 | 11.244 | 330.7 |
| 2026-06-20T01:50 | 21.73402 | -158.67130 | 10.979 | 330.8 |
| 2026-06-20T02:00 | 21.76099 | -158.68746 | 11.081 | 330.8 |
| 2026-06-20T02:10 | 21.78736 | -158.70340 | 10.856 | 330.5 |
| 2026-06-20T02:20 | 21.81333 | -158.71893 | 10.665 | 330.8 |
| 2026-06-20T02:30 | 21.83894 | -158.73441 | 10.543 | 330.6 |
| 2026-06-20T02:40 | 21.86447 | -158.74979 | 10.505 | 330.6 |
| 2026-06-20T02:50 | 21.88968 | -158.76487 | 10.351 | 330.8 |
| 2026-06-20T03:00 | 21.91461 | -158.77969 | 10.220 | 331.0 |
| 2026-06-20T03:10 | 21.93758 | -158.79353 | 9.450 | 330.7 |
| 2026-06-20T03:20 | 21.96012 | -158.80713 | 9.274 | 330.6 |
| 2026-06-20T03:30 | 21.98339 | -158.82110 | 9.559 | 330.8 |
| 2026-06-20T03:40 | 22.00851 | -158.83623 | 10.333 | 330.7 |
| 2026-06-20T03:50 | 22.03356 | -158.85132 | 10.301 | 330.7 |
| 2026-06-20T04:00 | 22.05814 | -158.86602 | 10.089 | 330.9 |
| 2026-06-20T04:10 | 22.08296 | -158.88103 | 10.217 | 330.6 |
| 2026-06-20T04:20 | 22.10780 | -158.89599 | 10.211 | 330.7 |
| 2026-06-20T04:30 | 22.13273 | -158.91100 | 10.250 | 330.7 |
| 2026-06-20T04:40 | 22.15756 | -158.92591 | 10.200 | 330.8 |
| 2026-06-20T04:50 | 22.18165 | -158.94046 | 9.912 | 330.6 |
| 2026-06-20T05:00 | 22.20577 | -158.95493 | 9.906 | 330.8 |
| 2026-06-20T05:10 | 22.23026 | -158.96971 | 10.073 | 330.7 |
| 2026-06-20T05:20 | 22.25476 | -158.98443 | 10.064 | 330.8 |
| 2026-06-20T05:30 | 22.27916 | -158.99910 | 10.026 | 330.8 |
| 2026-06-20T05:40 | 22.30355 | -159.01384 | 10.032 | 330.6 |
| 2026-06-20T05:50 | 22.32791 | -159.02848 | 10.007 | 330.8 |
| 2026-06-20T06:00 | 22.35226 | -159.04315 | 10.007 | 330.7 |
| 2026-06-20T06:10 | 22.37580 | -159.05899 | 9.960 | 328.0 |
| 2026-06-20T06:20 | 22.39399 | -159.08170 | 9.995 | 310.7 |
| 2026-06-20T06:30 | 22.41263 | -159.10505 | 10.259 | 310.6 |
| 2026-06-20T06:40 | 22.43130 | -159.12854 | 10.302 | 310.5 |
| 2026-06-20T06:50 | 22.44996 | -159.15224 | 10.352 | 310.3 |
| 2026-06-20T07:00 | 22.46827 | -159.17516 | 10.073 | 310.7 |
| 2026-06-20T07:10 | 22.48675 | -159.19847 | 10.210 | 310.5 |
| 2026-06-20T07:20 | 22.50486 | -159.22128 | 9.997 | 310.5 |
| 2026-06-20T07:30 | 22.52274 | -159.24382 | 9.872 | 310.5 |
| 2026-06-20T07:40 | 22.54080 | -159.26664 | 9.986 | 310.4 |
| 2026-06-20T07:50 | 22.55883 | -159.28925 | 9.925 | 310.6 |
| 2026-06-20T08:00 | 22.57676 | -159.31192 | 9.914 | 310.4 |
| 2026-06-20T08:10 | 22.59495 | -159.33485 | 10.045 | 310.5 |
| 2026-06-20T08:20 | 22.61341 | -159.35809 | 10.181 | 310.6 |
| 2026-06-20T08:30 | 22.63161 | -159.38117 | 10.079 | 310.4 |
| 2026-06-20T08:40 | 22.64973 | -159.40392 | 9.978 | 310.6 |
| 2026-06-20T08:50 | 22.66795 | -159.42699 | 10.081 | 310.4 |
| 2026-06-20T09:00 | 22.68622 | -159.44999 | 10.074 | 310.6 |
| 2026-06-20T09:10 | 22.70427 | -159.47271 | 9.951 | 310.6 |
| 2026-06-20T09:20 | 22.72225 | -159.49555 | 9.965 | 310.3 |
| 2026-06-20T09:30 | 22.74029 | -159.51831 | 9.959 | 310.5 |
| 2026-06-20T09:40 | 22.75828 | -159.54099 | 9.924 | 310.5 |
| 2026-06-20T09:50 | 22.77649 | -159.56394 | 10.045 | 310.6 |
| 2026-06-20T10:00 | 22.79450 | -159.58672 | 9.953 | 310.5 |
| 2026-06-20T10:10 | 22.81264 | -159.60973 | 10.042 | 310.4 |
| 2026-06-20T10:20 | 22.83084 | -159.63260 | 10.019 | 310.6 |
| 2026-06-20T10:30 | 22.84904 | -159.65565 | 10.065 | 310.4 |
| 2026-06-20T10:40 | 22.86733 | -159.67876 | 10.097 | 310.5 |
| 2026-06-20T10:50 | 22.88566 | -159.70198 | 10.135 | 310.4 |
| 2026-06-20T11:00 | 22.90365 | -159.72455 | 9.894 | 310.7 |
| 2026-06-20T11:10 | 22.92169 | -159.74750 | 9.997 | 310.3 |
| 2026-06-20T11:20 | 22.93979 | -159.77022 | 9.953 | 310.7 |
| 2026-06-20T11:30 | 22.95796 | -159.79338 | 10.082 | 310.3 |
| 2026-06-20T11:40 | 22.97618 | -159.81637 | 10.047 | 310.6 |
| 2026-06-20T11:50 | 22.99455 | -159.83961 | 10.146 | 310.5 |
| 2026-06-20T12:00 | 23.01303 | -159.86296 | 10.196 | 310.5 |
| 2026-06-20T12:10 | 23.03122 | -159.88597 | 10.044 | 310.5 |
| 2026-06-20T12:20 | 23.04963 | -159.90931 | 10.176 | 310.4 |
| 2026-06-20T12:30 | 23.06794 | -159.93251 | 10.120 | 310.5 |
| 2026-06-20T12:40 | 23.08638 | -159.95578 | 10.166 | 310.6 |
| 2026-06-20T12:50 | 23.10496 | -159.97939 | 10.281 | 310.4 |
| 2026-06-20T13:00 | 23.12361 | -160.00292 | 10.278 | 310.6 |
| 2026-06-20T13:10 | 23.14222 | -160.02655 | 10.291 | 310.4 |
| 2026-06-20T13:20 | 23.16065 | -160.04983 | 10.163 | 310.6 |
| 2026-06-20T13:30 | 23.17903 | -160.07315 | 10.159 | 310.4 |
| 2026-06-20T13:40 | 23.19740 | -160.09648 | 10.160 | 310.4 |
| 2026-06-20T13:50 | 23.21616 | -160.12012 | 10.326 | 310.6 |
| 2026-06-20T14:00 | 23.23485 | -160.14388 | 10.343 | 310.4 |
| 2026-06-20T14:10 | 23.25376 | -160.16777 | 10.421 | 310.6 |
| 2026-06-20T14:20 | 23.27259 | -160.19169 | 10.413 | 310.4 |
| 2026-06-20T14:30 | 23.29144 | -160.21553 | 10.398 | 310.6 |
| 2026-06-20T14:40 | 23.31012 | -160.23929 | 10.333 | 310.4 |
| 2026-06-20T14:50 | 23.32828 | -160.26228 | 10.021 | 310.5 |
| 2026-06-20T15:00 | 23.34634 | -160.28514 | 9.961 | 310.6 |
| 2026-06-20T15:10 | 23.36457 | -160.30830 | 10.074 | 310.4 |
| 2026-06-20T15:20 | 23.38303 | -160.33175 | 10.203 | 310.5 |
| 2026-06-20T15:30 | 23.40094 | -160.35441 | 9.878 | 310.6 |
| 2026-06-20T15:40 | 23.41887 | -160.37720 | 9.910 | 310.4 |
| 2026-06-20T15:50 | 23.43702 | -160.40029 | 10.035 | 310.4 |
| 2026-06-20T16:00 | 23.45515 | -160.42318 | 9.981 | 310.6 |
| 2026-06-20T16:10 | 23.47313 | -160.44613 | 9.962 | 310.4 |
| 2026-06-20T16:20 | 23.49126 | -160.46908 | 9.996 | 310.6 |
| 2026-06-20T16:30 | 23.50965 | -160.49251 | 10.174 | 310.4 |
| 2026-06-20T16:40 | 23.52832 | -160.51615 | 10.293 | 310.6 |
| 2026-06-20T16:50 | 23.54683 | -160.53960 | 10.206 | 310.6 |
| 2026-06-20T17:00 | 23.56530 | -160.56311 | 10.212 | 310.4 |
| 2026-06-20T17:10 | 23.58363 | -160.58647 | 10.139 | 310.4 |
| 2026-06-20T17:20 | 23.60194 | -160.60966 | 10.094 | 310.6 |
| 2026-06-20T17:30 | 23.62002 | -160.63269 | 9.997 | 310.4 |
| 2026-06-20T17:40 | 23.63819 | -160.65575 | 10.026 | 310.5 |
| 2026-06-20T17:50 | 23.65656 | -160.67908 | 10.140 | 310.5 |
| 2026-06-20T18:00 | 23.67504 | -160.70262 | 10.215 | 310.4 |
| 2026-06-20T18:10 | 23.69359 | -160.72617 | 10.235 | 310.5 |
| 2026-06-20T18:20 | 23.71152 | -160.74901 | 9.911 | 310.5 |
| 2026-06-20T18:30 | 23.72984 | -160.77232 | 10.122 | 310.5 |
| 2026-06-20T18:40 | 23.74801 | -160.79536 | 10.014 | 310.6 |
| 2026-06-20T18:50 | 23.76600 | -160.81831 | 9.952 | 310.4 |
| 2026-06-20T19:00 | 23.78410 | -160.84130 | 9.982 | 310.5 |
| 2026-06-20T19:10 | 23.80201 | -160.86412 | 9.899 | 310.5 |
| 2026-06-20T19:20 | 23.81970 | -160.88670 | 9.786 | 310.4 |
| 2026-06-20T19:30 | 23.83734 | -160.90910 | 9.726 | 310.6 |
| 2026-06-20T19:40 | 23.85488 | -160.93142 | 9.685 | 310.5 |
| 2026-06-20T19:50 | 23.87246 | -160.95385 | 9.722 | 310.4 |
| 2026-06-20T20:00 | 23.89006 | -160.97629 | 9.726 | 310.5 |
| 2026-06-20T20:10 | 23.90787 | -160.99896 | 9.832 | 310.5 |
| 2026-06-20T20:20 | 23.92574 | -161.02169 | 9.862 | 310.5 |
| 2026-06-20T20:30 | 23.94373 | -161.04462 | 9.935 | 310.5 |
| 2026-06-20T20:40 | 23.96187 | -161.06780 | 10.035 | 310.4 |
| 2026-06-20T20:50 | 23.98002 | -161.09072 | 9.972 | 310.8 |
| 2026-06-20T21:00 | 23.99807 | -161.11386 | 10.001 | 310.3 |
| 2026-06-20T21:10 | 24.01612 | -161.13695 | 9.988 | 310.4 |
| 2026-06-20T21:20 | 24.03396 | -161.15931 | 9.757 | 311.0 |
| 2026-06-20T21:30 | 24.05190 | -161.18248 | 9.980 | 310.1 |
| 2026-06-20T21:40 | 24.07025 | -161.20585 | 10.129 | 310.5 |
| 2026-06-20T21:50 | 24.08864 | -161.22944 | 10.187 | 310.3 |
| 2026-06-20T22:00 | 24.10734 | -161.25309 | 10.279 | 310.8 |
| 2026-06-20T22:10 | 24.12598 | -161.27703 | 10.333 | 310.3 |
| 2026-06-20T22:20 | 24.14485 | -161.30104 | 10.403 | 310.6 |
| 2026-06-20T22:30 | 24.16360 | -161.32502 | 10.370 | 310.4 |
| 2026-06-20T22:40 | 24.18234 | -161.34897 | 10.357 | 310.5 |
| 2026-06-20T22:50 | 24.20111 | -161.37294 | 10.366 | 310.5 |
| 2026-06-20T23:00 | 24.21987 | -161.39692 | 10.369 | 310.5 |
| 2026-06-20T23:10 | 24.23872 | -161.42090 | 10.387 | 310.6 |
| 2026-06-20T23:20 | 24.25752 | -161.44503 | 10.414 | 310.4 |
| 2026-06-20T23:30 | 24.27635 | -161.46902 | 10.381 | 310.6 |
| 2026-06-20T23:40 | 24.29498 | -161.49274 | 10.269 | 310.6 |
| 2026-06-20T23:50 | 24.31362 | -161.51666 | 10.321 | 310.4 |
| 2026-06-21T00:00 | 24.33215 | -161.54034 | 10.234 | 310.5 |
| 2026-06-21T00:10 | 24.35056 | -161.56375 | 10.137 | 310.6 |
| 2026-06-21T00:20 | 24.36845 | -161.58674 | 9.912 | 310.4 |
| 2026-06-21T00:30 | 24.38660 | -161.60991 | 10.015 | 310.5 |
| 2026-06-21T00:40 | 24.40457 | -161.63290 | 9.928 | 310.5 |
| 2026-06-21T00:50 | 24.42271 | -161.65608 | 10.014 | 310.5 |
| 2026-06-21T01:00 | 24.44074 | -161.67915 | 9.959 | 310.5 |
| 2026-06-21T01:10 | 24.45844 | -161.70174 | 9.762 | 310.6 |
| 2026-06-21T01:20 | 24.47656 | -161.72495 | 10.014 | 310.5 |
| 2026-06-21T01:30 | 24.49479 | -161.74830 | 10.072 | 310.5 |
| 2026-06-21T01:40 | 24.51285 | -161.77142 | 9.977 | 310.5 |
| 2026-06-21T01:50 | 24.53081 | -161.79435 | 9.908 | 310.6 |
| 2026-06-21T02:00 | 24.54645 | -161.81470 | 8.719 | 310.0 |
| 2026-06-21T02:10 | 24.56046 | -161.83249 | 7.700 | 310.7 |
| 2026-06-21T02:20 | 24.57549 | -161.85583 | 9.364 | 305.1 |
| 2026-06-21T02:30 | 24.58968 | -161.87986 | 9.383 | 302.9 |
| 2026-06-21T02:40 | 24.60479 | -161.90459 | 9.753 | 303.8 |
| 2026-06-21T02:50 | 24.62002 | -161.93001 | 9.963 | 303.2 |
| 2026-06-21T03:00 | 24.63522 | -161.95547 | 9.973 | 303.2 |
| 2026-06-21T03:10 | 24.65046 | -161.98086 | 9.958 | 303.3 |
| 2026-06-21T03:20 | 24.66550 | -162.00612 | 9.881 | 303.1 |
| 2026-06-21T03:30 | 24.68050 | -162.03130 | 9.849 | 303.1 |
| 2026-06-21T03:40 | 24.69575 | -162.05662 | 9.939 | 303.4 |
| 2026-06-21T03:50 | 24.71111 | -162.08233 | 10.065 | 303.2 |
| 2026-06-21T04:00 | 24.72645 | -162.10799 | 10.048 | 303.2 |
| 2026-06-21T04:10 | 24.74172 | -162.13359 | 10.016 | 303.2 |
| 2026-06-21T04:20 | 24.75705 | -162.15929 | 10.053 | 303.2 |
| 2026-06-21T04:30 | 24.77257 | -162.18517 | 10.141 | 303.3 |
| 2026-06-21T04:40 | 24.78829 | -162.21148 | 10.298 | 303.2 |
| 2026-06-21T04:50 | 24.80420 | -162.23826 | 10.461 | 303.1 |
| 2026-06-21T05:00 | 24.81958 | -162.26376 | 10.004 | 303.5 |
| 2026-06-21T05:10 | 24.83458 | -162.28908 | 9.880 | 303.0 |
| 2026-06-21T05:20 | 24.84960 | -162.31404 | 9.788 | 303.4 |
| 2026-06-21T05:30 | 24.86474 | -162.33942 | 9.923 | 303.2 |
| 2026-06-21T05:40 | 24.87996 | -162.36490 | 9.965 | 303.2 |
| 2026-06-21T05:50 | 24.89516 | -162.39032 | 9.944 | 303.2 |
| 2026-06-21T06:00 | 24.91048 | -162.41610 | 10.067 | 303.1 |
| 2026-06-21T06:10 | 24.92574 | -162.44155 | 9.962 | 303.3 |
| 2026-06-21T06:20 | 24.94110 | -162.46725 | 10.048 | 303.2 |
| 2026-06-21T06:30 | 24.95651 | -162.49321 | 10.132 | 303.1 |
| 2026-06-21T06:40 | 24.97198 | -162.51899 | 10.089 | 303.4 |
| 2026-06-21T06:50 | 24.98749 | -162.54506 | 10.181 | 303.1 |
| 2026-06-21T07:00 | 25.00293 | -162.57082 | 10.076 | 303.3 |
| 2026-06-21T07:10 | 25.01816 | -162.59641 | 9.991 | 303.1 |
| 2026-06-21T07:20 | 25.03347 | -162.62182 | 9.954 | 303.5 |
| 2026-06-21T07:30 | 25.04978 | -162.64514 | 9.609 | 307.5 |
| 2026-06-21T07:40 | 25.06287 | -162.67121 | 9.725 | 298.9 |
| 2026-06-21T07:50 | 25.07793 | -162.69661 | 9.903 | 303.1 |
| 2026-06-21T08:00 | 25.09298 | -162.72206 | 9.911 | 303.0 |
| 2026-06-21T08:10 | 25.10772 | -162.74661 | 9.605 | 303.4 |
| 2026-06-21T08:20 | 25.12229 | -162.77100 | 9.525 | 303.3 |
| 2026-06-21T08:30 | 25.13694 | -162.79566 | 9.615 | 303.1 |
| 2026-06-21T08:40 | 25.15188 | -162.82073 | 9.786 | 303.2 |
| 2026-06-21T08:50 | 25.16696 | -162.84597 | 9.856 | 303.3 |
| 2026-06-21T09:00 | 25.18195 | -162.87114 | 9.817 | 303.2 |
| 2026-06-21T09:10 | 25.19722 | -162.89684 | 10.020 | 303.1 |
| 2026-06-21T09:20 | 25.21223 | -162.92197 | 9.811 | 303.3 |
| 2026-06-21T09:30 | 25.22732 | -162.94741 | 9.907 | 303.1 |
| 2026-06-21T09:40 | 25.24259 | -162.97297 | 9.979 | 303.3 |
| 2026-06-21T09:50 | 25.25797 | -162.99877 | 10.062 | 303.2 |
| 2026-06-21T10:00 | 25.27369 | -163.02516 | 10.291 | 303.2 |
| 2026-06-21T10:10 | 25.28966 | -163.05188 | 10.427 | 303.3 |
| 2026-06-21T10:20 | 25.30571 | -163.07898 | 10.549 | 303.1 |
| 2026-06-21T10:30 | 25.32192 | -163.10615 | 10.596 | 303.3 |
| 2026-06-21T10:40 | 25.33801 | -163.13338 | 10.588 | 303.0 |
| 2026-06-21T10:50 | 25.35412 | -163.16033 | 10.516 | 303.4 |
| 2026-06-21T11:00 | 25.37014 | -163.18728 | 10.496 | 303.2 |
| 2026-06-21T11:10 | 25.38606 | -163.21395 | 10.400 | 303.3 |
| 2026-06-21T11:20 | 25.40208 | -163.24110 | 10.545 | 303.0 |
| 2026-06-21T11:30 | 25.41807 | -163.26806 | 10.492 | 303.1 |
| 2026-06-21T11:40 | 25.43424 | -163.29499 | 10.516 | 303.5 |
| 2026-06-21T11:50 | 25.45003 | -163.32165 | 10.367 | 303.1 |
| 2026-06-21T12:00 | 25.46564 | -163.34787 | 10.212 | 303.2 |
| 2026-06-21T12:10 | 25.48093 | -163.37355 | 9.999 | 303.3 |
| 2026-06-21T12:20 | 25.49614 | -163.39918 | 9.970 | 303.2 |
| 2026-06-21T12:30 | 25.51103 | -163.42445 | 9.806 | 303.0 |
| 2026-06-21T12:40 | 25.52604 | -163.44968 | 9.821 | 303.3 |
| 2026-06-21T12:50 | 25.54114 | -163.47498 | 9.855 | 303.3 |
| 2026-06-21T13:00 | 25.55641 | -163.50070 | 10.006 | 303.2 |
| 2026-06-21T13:10 | 25.57172 | -163.52646 | 10.020 | 303.2 |
| 2026-06-21T13:20 | 25.58716 | -163.55251 | 10.122 | 303.2 |
| 2026-06-21T13:30 | 25.60265 | -163.57868 | 10.166 | 303.1 |
| 2026-06-21T13:40 | 25.61820 | -163.60483 | 10.172 | 303.3 |
| 2026-06-21T13:50 | 25.63376 | -163.63101 | 10.180 | 303.2 |
| 2026-06-21T14:00 | 25.64930 | -163.65724 | 10.190 | 303.2 |
| 2026-06-21T14:10 | 25.66474 | -163.68322 | 10.099 | 303.3 |
| 2026-06-21T14:20 | 25.68004 | -163.70901 | 10.021 | 303.2 |
| 2026-06-21T14:30 | 25.69533 | -163.73486 | 10.035 | 303.1 |
| 2026-06-21T14:40 | 25.71087 | -163.76094 | 10.145 | 303.3 |
| 2026-06-21T14:50 | 25.72653 | -163.78741 | 10.272 | 303.2 |
| 2026-06-21T15:00 | 25.74277 | -163.81468 | 10.603 | 303.3 |
| 2026-06-21T15:10 | 25.75915 | -163.84233 | 10.733 | 303.2 |
| 2026-06-21T15:20 | 25.77513 | -163.86940 | 10.497 | 303.1 |
| 2026-06-21T15:30 | 25.79055 | -163.89531 | 10.068 | 303.3 |
| 2026-06-21T15:40 | 25.80601 | -163.92144 | 10.137 | 303.2 |
| 2026-06-21T15:50 | 25.82150 | -163.94740 | 10.096 | 303.4 |
| 2026-06-21T16:00 | 25.83688 | -163.97356 | 10.129 | 303.0 |
| 2026-06-21T16:10 | 25.85234 | -163.99965 | 10.124 | 303.2 |
| 2026-06-21T16:20 | 25.86774 | -164.02559 | 10.070 | 303.3 |
| 2026-06-21T16:30 | 25.88305 | -164.05153 | 10.050 | 303.1 |
| 2026-06-21T16:40 | 25.89846 | -164.07760 | 10.105 | 303.2 |
| 2026-06-21T16:50 | 25.91405 | -164.10376 | 10.166 | 303.4 |
| 2026-06-21T17:00 | 25.92956 | -164.13007 | 10.188 | 303.1 |
| 2026-06-21T17:10 | 25.94473 | -164.15570 | 9.934 | 303.2 |
| 2026-06-21T17:20 | 25.95955 | -164.18077 | 9.717 | 303.2 |
| 2026-06-21T17:30 | 25.97448 | -164.20591 | 9.752 | 303.3 |
| 2026-06-21T17:40 | 25.98923 | -164.23085 | 9.665 | 303.2 |
| 2026-06-21T17:50 | 26.00415 | -164.25614 | 9.789 | 303.1 |
| 2026-06-21T18:00 | 26.01959 | -164.28220 | 10.102 | 303.3 |
| 2026-06-21T18:10 | 26.03509 | -164.30842 | 10.155 | 303.2 |
| 2026-06-21T18:20 | 26.05053 | -164.33460 | 10.132 | 303.1 |
| 2026-06-21T18:30 | 26.06614 | -164.36094 | 10.208 | 303.3 |
| 2026-06-21T18:40 | 26.08185 | -164.38748 | 10.279 | 303.3 |
| 2026-06-21T18:50 | 26.09687 | -164.41286 | 9.830 | 303.2 |
| 2026-06-21T19:00 | 26.11168 | -164.43800 | 9.723 | 303.1 |
| 2026-06-21T19:10 | 26.12766 | -164.46505 | 10.469 | 303.2 |
| 2026-06-21T19:20 | 26.14373 | -164.49222 | 10.519 | 303.2 |
| 2026-06-21T19:30 | 26.15995 | -164.51973 | 10.637 | 303.2 |
| 2026-06-21T19:40 | 26.17577 | -164.54647 | 10.352 | 303.3 |
| 2026-06-21T19:50 | 26.19146 | -164.57298 | 10.262 | 303.3 |
| 2026-06-21T20:00 | 26.20707 | -164.59945 | 10.236 | 303.2 |
| 2026-06-21T20:10 | 26.22311 | -164.62660 | 10.500 | 303.2 |
| 2026-06-21T20:20 | 26.23952 | -164.65434 | 10.733 | 303.3 |
| 2026-06-21T20:30 | 26.25612 | -164.68238 | 10.853 | 303.3 |
| 2026-06-21T20:40 | 26.27258 | -164.71041 | 10.820 | 303.1 |
| 2026-06-21T20:50 | 26.28925 | -164.73867 | 10.920 | 303.2 |
| 2026-06-21T21:00 | 26.30576 | -164.76658 | 10.796 | 303.3 |
| 2026-06-21T21:10 | 26.32223 | -164.79443 | 10.772 | 303.3 |
| 2026-06-21T21:20 | 26.33864 | -164.82218 | 10.728 | 303.3 |
| 2026-06-21T21:30 | 26.35489 | -164.84994 | 10.699 | 303.0 |
| 2026-06-21T21:40 | 26.37128 | -164.87759 | 10.698 | 303.4 |
| 2026-06-21T21:50 | 26.38772 | -164.90553 | 10.783 | 303.1 |
| 2026-06-21T22:00 | 26.40451 | -164.93401 | 10.998 | 303.2 |
| 2026-06-21T22:10 | 26.42146 | -164.96286 | 11.127 | 303.1 |
| 2026-06-21T22:20 | 26.43851 | -164.99155 | 11.106 | 303.4 |
| 2026-06-21T22:30 | 26.45527 | -165.02025 | 11.046 | 303.0 |
| 2026-06-21T22:40 | 26.47219 | -165.04898 | 11.086 | 303.2 |
| 2026-06-21T22:50 | 26.48893 | -165.07723 | 10.921 | 303.4 |
| 2026-06-21T23:00 | 26.50569 | -165.10557 | 10.948 | 303.3 |
| 2026-06-21T23:10 | 26.52244 | -165.13401 | 10.969 | 303.2 |
| 2026-06-21T23:20 | 26.53882 | -165.16205 | 10.790 | 303.0 |
| 2026-06-21T23:30 | 26.55541 | -165.19027 | 10.879 | 303.2 |
| 2026-06-21T23:40 | 26.57222 | -165.21866 | 10.965 | 303.4 |
| 2026-06-21T23:50 | 26.58881 | -165.24683 | 10.864 | 303.2 |
| 2026-06-22T00:00 | 26.60524 | -165.27472 | 10.755 | 303.2 |
| 2026-06-22T00:10 | 26.62157 | -165.30265 | 10.743 | 303.1 |
| 2026-06-22T00:20 | 26.63788 | -165.33029 | 10.663 | 303.3 |
| 2026-06-22T00:30 | 26.65403 | -165.35770 | 10.566 | 303.3 |
| 2026-06-22T00:40 | 26.67009 | -165.38510 | 10.548 | 303.1 |
| 2026-06-22T00:50 | 26.68616 | -165.41252 | 10.551 | 303.1 |
| 2026-06-22T01:00 | 26.70243 | -165.44017 | 10.652 | 303.2 |
| 2026-06-22T01:10 | 26.71883 | -165.46804 | 10.737 | 303.2 |
| 2026-06-22T01:20 | 26.73531 | -165.49622 | 10.831 | 303.1 |
| 2026-06-22T01:30 | 26.75197 | -165.52443 | 10.880 | 303.3 |
| 2026-06-22T01:40 | 26.76863 | -165.55271 | 10.891 | 303.3 |
| 2026-06-22T01:50 | 26.78536 | -165.58099 | 10.908 | 303.4 |
| 2026-06-22T02:00 | 26.80206 | -165.60966 | 11.007 | 303.0 |
| 2026-06-22T02:10 | 26.81881 | -165.63820 | 10.976 | 303.2 |
| 2026-06-22T02:20 | 26.83544 | -165.66646 | 10.879 | 303.3 |
| 2026-06-22T02:30 | 26.85207 | -165.69452 | 10.824 | 303.4 |
| 2026-06-22T02:40 | 26.86835 | -165.72244 | 10.716 | 303.0 |
| 2026-06-22T02:50 | 26.88464 | -165.75012 | 10.653 | 303.3 |
| 2026-06-22T03:00 | 26.90086 | -165.77777 | 10.628 | 303.2 |
| 2026-06-22T03:10 | 26.91695 | -165.80523 | 10.551 | 303.2 |
| 2026-06-22T03:20 | 26.93301 | -165.83250 | 10.495 | 303.3 |
| 2026-06-22T03:30 | 26.94884 | -165.85968 | 10.424 | 303.0 |
| 2026-06-22T03:40 | 26.96476 | -165.88666 | 10.385 | 303.4 |
| 2026-06-22T03:50 | 26.98070 | -165.91388 | 10.451 | 303.2 |
| 2026-06-22T04:00 | 26.99689 | -165.94158 | 10.633 | 303.1 |
| 2026-06-22T04:10 | 27.01349 | -165.96986 | 10.864 | 303.2 |
| 2026-06-22T04:20 | 27.02992 | -165.99796 | 10.785 | 303.1 |
| 2026-06-22T04:30 | 27.04656 | -166.02609 | 10.828 | 303.4 |
| 2026-06-22T04:40 | 27.06305 | -166.05432 | 10.828 | 303.1 |
| 2026-06-22T04:50 | 27.07928 | -166.08204 | 10.641 | 303.2 |
| 2026-06-22T05:00 | 27.09583 | -166.11033 | 10.853 | 303.2 |
| 2026-06-22T05:10 | 27.11228 | -166.13840 | 10.775 | 303.2 |
| 2026-06-22T05:20 | 27.12840 | -166.16592 | 10.559 | 303.2 |
| 2026-06-22T05:30 | 27.14415 | -166.19285 | 10.325 | 303.2 |
| 2026-06-22T05:40 | 27.15968 | -166.21928 | 10.152 | 303.3 |
| 2026-06-22T05:50 | 27.17502 | -166.24556 | 10.071 | 303.1 |
| 2026-06-22T06:00 | 27.19046 | -166.27186 | 10.093 | 303.3 |
| 2026-06-22T06:10 | 27.20582 | -166.29813 | 10.071 | 303.2 |
| 2026-06-22T06:20 | 27.22146 | -166.32466 | 10.193 | 303.4 |
| 2026-06-22T06:30 | 27.23702 | -166.35138 | 10.227 | 303.1 |
| 2026-06-22T06:40 | 27.25253 | -166.37790 | 10.166 | 303.2 |
| 2026-06-22T06:50 | 27.26776 | -166.40398 | 9.989 | 303.2 |
| 2026-06-22T07:00 | 27.28229 | -166.42860 | 9.459 | 303.5 |
| 2026-06-22T07:10 | 27.29753 | -166.45514 | 10.114 | 302.7 |
| 2026-06-22T07:20 | 27.31298 | -166.48131 | 10.054 | 303.5 |
| 2026-06-22T07:30 | 27.32835 | -166.50749 | 10.038 | 303.3 |
| 2026-06-22T07:40 | 27.34373 | -166.53381 | 10.081 | 303.2 |
| 2026-06-22T07:50 | 27.35923 | -166.56029 | 10.144 | 303.2 |
| 2026-06-22T08:00 | 27.37464 | -166.58681 | 10.137 | 303.1 |
| 2026-06-22T08:10 | 27.39021 | -166.61341 | 10.187 | 303.3 |
| 2026-06-22T08:20 | 27.40560 | -166.63981 | 10.099 | 303.1 |
| 2026-06-22T08:30 | 27.42093 | -166.66612 | 10.059 | 303.1 |
| 2026-06-22T08:40 | 27.43629 | -166.69226 | 10.021 | 303.4 |
| 2026-06-22T08:50 | 27.45168 | -166.71864 | 10.089 | 303.2 |
| 2026-06-22T09:00 | 27.46724 | -166.74513 | 10.153 | 303.4 |
| 2026-06-22T09:10 | 27.48261 | -166.77173 | 10.144 | 302.9 |
| 2026-06-22T09:20 | 27.49843 | -166.79878 | 10.349 | 303.2 |
| 2026-06-22T09:30 | 27.51425 | -166.82576 | 10.332 | 303.4 |
| 2026-06-22T09:40 | 27.53028 | -166.85323 | 10.500 | 303.2 |
| 2026-06-22T09:50 | 27.54625 | -166.88063 | 10.473 | 303.2 |
| 2026-06-22T10:00 | 27.56197 | -166.90765 | 10.318 | 303.1 |
| 2026-06-22T10:10 | 27.57763 | -166.93442 | 10.240 | 303.3 |
| 2026-06-22T10:20 | 27.59332 | -166.96129 | 10.271 | 303.2 |
| 2026-06-22T10:30 | 27.60919 | -166.98834 | 10.353 | 303.4 |
| 2026-06-22T10:40 | 27.62497 | -167.01551 | 10.367 | 303.1 |
| 2026-06-22T10:50 | 27.64079 | -167.04273 | 10.388 | 303.1 |
| 2026-06-22T11:00 | 27.65657 | -167.06972 | 10.314 | 303.3 |
| 2026-06-22T11:10 | 27.67226 | -167.09665 | 10.282 | 303.2 |
| 2026-06-22T11:20 | 27.68779 | -167.12341 | 10.204 | 303.1 |
| 2026-06-22T11:30 | 27.70363 | -167.15043 | 10.333 | 303.4 |
| 2026-06-22T11:40 | 27.71915 | -167.17727 | 10.220 | 303.0 |
| 2026-06-22T11:50 | 27.73498 | -167.20424 | 10.316 | 303.4 |
| 2026-06-22T12:00 | 27.75080 | -167.23141 | 10.367 | 303.2 |
| 2026-06-22T12:10 | 27.76649 | -167.25824 | 10.249 | 303.3 |
| 2026-06-22T12:20 | 27.78196 | -167.28496 | 10.176 | 303.1 |
| 2026-06-22T12:30 | 27.79755 | -167.31180 | 10.230 | 303.1 |
| 2026-06-22T12:40 | 27.81319 | -167.33872 | 10.259 | 303.2 |
| 2026-06-22T12:50 | 27.82887 | -167.36553 | 10.237 | 303.3 |
| 2026-06-22T13:00 | 27.84451 | -167.39240 | 10.246 | 303.2 |
| 2026-06-22T13:10 | 27.86021 | -167.41941 | 10.292 | 303.2 |
| 2026-06-22T13:20 | 27.87584 | -167.44643 | 10.281 | 303.1 |
| 2026-06-22T13:30 | 27.89163 | -167.47343 | 10.305 | 303.3 |
| 2026-06-22T13:40 | 27.90719 | -167.50014 | 10.183 | 303.3 |
| 2026-06-22T13:50 | 27.92275 | -167.52685 | 10.180 | 303.3 |
| 2026-06-22T14:00 | 27.93820 | -167.55356 | 10.159 | 303.1 |
| 2026-06-22T14:10 | 27.95380 | -167.58048 | 10.243 | 303.1 |
| 2026-06-22T14:20 | 27.96950 | -167.60734 | 10.245 | 303.4 |
| 2026-06-22T14:30 | 27.98510 | -167.63423 | 10.233 | 303.2 |
| 2026-06-22T14:40 | 28.00082 | -167.66115 | 10.264 | 303.4 |
| 2026-06-22T14:50 | 28.01656 | -167.68835 | 10.339 | 303.1 |
| 2026-06-22T15:00 | 28.03239 | -167.71555 | 10.360 | 303.3 |
| 2026-06-22T15:10 | 28.04847 | -167.74318 | 10.520 | 303.3 |
| 2026-06-22T15:20 | 28.06459 | -167.77099 | 10.575 | 303.2 |
| 2026-06-22T15:30 | 28.08075 | -167.79885 | 10.595 | 303.2 |
| 2026-06-22T15:40 | 28.09687 | -167.82667 | 10.574 | 303.2 |
| 2026-06-22T15:50 | 28.11294 | -167.85431 | 10.517 | 303.3 |
| 2026-06-22T16:00 | 28.12896 | -167.88191 | 10.494 | 303.2 |
| 2026-06-22T16:10 | 28.14507 | -167.90968 | 10.558 | 303.2 |
| 2026-06-22T16:20 | 28.16131 | -167.93766 | 10.637 | 303.2 |
| 2026-06-22T16:30 | 28.17785 | -167.96613 | 10.826 | 303.2 |
| 2026-06-22T16:40 | 28.19424 | -167.99440 | 10.740 | 303.2 |
| 2026-06-22T16:50 | 28.21052 | -168.02246 | 10.665 | 303.2 |
| 2026-06-22T17:00 | 28.22685 | -168.05062 | 10.696 | 303.2 |
| 2026-06-22T17:10 | 28.24307 | -168.07848 | 10.598 | 303.3 |
| 2026-06-22T17:20 | 28.25915 | -168.10640 | 10.583 | 303.1 |
| 2026-06-22T17:30 | 28.27543 | -168.13435 | 10.630 | 303.3 |
| 2026-06-22T17:40 | 28.29157 | -168.16223 | 10.580 | 303.2 |
| 2026-06-22T17:50 | 28.30775 | -168.19025 | 10.627 | 303.1 |
| 2026-06-22T18:00 | 28.32400 | -168.21811 | 10.596 | 303.4 |
| 2026-06-22T18:10 | 28.33896 | -168.24382 | 9.772 | 303.3 |
| 2026-06-22T18:20 | 28.35321 | -168.26912 | 9.519 | 302.5 |
| 2026-06-22T18:30 | 28.36516 | -168.29402 | 8.993 | 298.5 |
| 2026-06-22T18:40 | 28.37714 | -168.31890 | 8.992 | 298.6 |
| 2026-06-22T18:50 | 28.38911 | -168.34387 | 9.012 | 298.5 |
| 2026-06-22T19:00 | 28.40110 | -168.36890 | 9.034 | 298.4 |
| 2026-06-22T19:10 | 28.41436 | -168.39669 | 10.019 | 298.4 |
| 2026-06-22T19:20 | 28.42770 | -168.42460 | 10.067 | 298.4 |
| 2026-06-22T19:30 | 28.44179 | -168.45393 | 10.589 | 298.5 |
| 2026-06-22T19:40 | 28.45578 | -168.48330 | 10.583 | 298.3 |
| 2026-06-22T19:50 | 28.46964 | -168.51228 | 10.449 | 298.4 |
| 2026-06-22T20:00 | 28.48191 | -168.53801 | 9.272 | 298.4 |
| 2026-06-22T20:10 | 28.49355 | -168.56215 | 8.718 | 298.6 |
| 2026-06-22T20:20 | 28.49969 | -168.56480 | 2.359 | 339.1 |
| 2026-06-22T20:30 | 28.49964 | -168.56487 | 0.031 | 229.9 |
| 2026-06-22T20:40 | 28.49995 | -168.56481 | 0.113 | 10.8 |
| 2026-06-22T20:50 | 28.49983 | -168.56479 | 0.043 | 171.9 |
| 2026-06-22T21:00 | 28.49986 | -168.56481 | 0.013 | 318.5 |
| 2026-06-22T21:10 | 28.49972 | -168.56483 | 0.051 | 184.6 |
| 2026-06-22T21:20 | 28.49976 | -168.56482 | 0.016 | 3.4 |
| 2026-06-22T21:30 | 28.49971 | -168.56483 | 0.017 | 183.2 |
| 2026-06-22T21:40 | 28.49990 | -168.56485 | 0.067 | 352.3 |
| 2026-06-22T21:50 | 28.49974 | -168.56483 | 0.057 | 173.7 |
| 2026-06-22T22:00 | 28.49973 | -168.56482 | 0.007 | 125.6 |
| 2026-06-22T22:10 | 28.49977 | -168.56477 | 0.021 | 40.8 |
| 2026-06-22T22:20 | 28.49981 | -168.56475 | 0.016 | 25.4 |
| 2026-06-22T22:30 | 28.49979 | -168.56483 | 0.027 | 249.1 |
| 2026-06-22T22:40 | 28.49989 | -168.56480 | 0.038 | 15.0 |
| 2026-06-22T22:50 | 28.49989 | -168.56486 | 0.019 | 274.3 |
| 2026-06-22T23:00 | 28.50680 | -168.56564 | 2.492 | 354.3 |
| 2026-06-22T23:10 | 28.51701 | -168.59046 | 8.678 | 295.0 |
| 2026-06-22T23:20 | 28.52702 | -168.61476 | 8.497 | 295.0 |
| 2026-06-22T23:30 | 28.53797 | -168.64158 | 9.366 | 294.8 |
| 2026-06-22T23:40 | 28.55000 | -168.67048 | 10.124 | 295.2 |
| 2026-06-22T23:50 | 28.56197 | -168.69947 | 10.137 | 295.1 |
| 2026-06-23T00:00 | 28.57395 | -168.72862 | 10.189 | 295.0 |
| 2026-06-23T00:10 | 28.58639 | -168.75714 | 10.078 | 296.3 |
| 2026-06-23T00:20 | 28.59861 | -168.78547 | 9.987 | 296.1 |
| 2026-06-23T00:30 | 28.61083 | -168.81381 | 9.988 | 296.0 |
| 2026-06-23T00:40 | 28.62293 | -168.84229 | 10.011 | 295.7 |
| 2026-06-23T00:50 | 28.63568 | -168.87032 | 9.984 | 297.3 |
| 2026-06-23T01:00 | 28.64879 | -168.89808 | 9.969 | 298.2 |
| 2026-06-23T01:10 | 28.66190 | -168.92623 | 10.077 | 297.9 |
| 2026-06-23T01:20 | 28.67507 | -168.95426 | 10.052 | 298.0 |
| 2026-06-23T01:30 | 28.68831 | -168.98252 | 10.128 | 298.0 |
| 2026-06-23T01:40 | 28.70171 | -169.01095 | 10.198 | 298.1 |
| 2026-06-23T01:50 | 28.71511 | -169.03975 | 10.303 | 297.8 |
| 2026-06-23T02:00 | 28.72875 | -169.06871 | 10.386 | 298.1 |
| 2026-06-23T02:10 | 28.74242 | -169.09802 | 10.491 | 297.9 |
| 2026-06-23T02:20 | 28.75620 | -169.12730 | 10.497 | 298.1 |
| 2026-06-23T02:30 | 28.77003 | -169.15687 | 10.585 | 297.9 |
| 2026-06-23T02:40 | 28.78399 | -169.18663 | 10.662 | 298.0 |
| 2026-06-23T02:50 | 28.79806 | -169.21660 | 10.734 | 298.1 |
| 2026-06-23T03:00 | 28.81212 | -169.24678 | 10.793 | 297.9 |
| 2026-06-23T03:10 | 28.82622 | -169.27667 | 10.718 | 298.2 |
| 2026-06-23T03:20 | 28.84034 | -169.30688 | 10.809 | 298.0 |
| 2026-06-23T03:30 | 28.85436 | -169.33686 | 10.724 | 298.0 |
| 2026-06-23T03:40 | 28.86849 | -169.36698 | 10.785 | 298.1 |
| 2026-06-23T03:50 | 28.88273 | -169.39730 | 10.855 | 298.1 |
| 2026-06-23T04:00 | 28.89675 | -169.42746 | 10.772 | 297.8 |
| 2026-06-23T04:10 | 28.91080 | -169.45727 | 10.680 | 298.2 |
| 2026-06-23T04:20 | 28.92450 | -169.48678 | 10.535 | 297.8 |
| 2026-06-23T04:30 | 28.93810 | -169.51577 | 10.371 | 298.1 |
| 2026-06-23T04:40 | 28.95158 | -169.54454 | 10.291 | 298.1 |
| 2026-06-23T04:50 | 28.96500 | -169.57321 | 10.249 | 298.0 |
| 2026-06-23T05:00 | 28.97842 | -169.60185 | 10.243 | 298.1 |
| 2026-06-23T05:10 | 28.99174 | -169.63041 | 10.202 | 298.0 |
| 2026-06-23T05:20 | 29.00523 | -169.65932 | 10.326 | 298.0 |
| 2026-06-23T05:30 | 29.01891 | -169.68858 | 10.458 | 298.0 |
| 2026-06-23T05:40 | 29.03257 | -169.71773 | 10.417 | 298.1 |
| 2026-06-23T05:50 | 29.04630 | -169.74702 | 10.471 | 298.1 |
| 2026-06-23T06:00 | 29.05996 | -169.77622 | 10.432 | 298.0 |
| 2026-06-23T06:10 | 29.07350 | -169.80519 | 10.346 | 298.0 |
| 2026-06-23T06:20 | 29.08688 | -169.83389 | 10.243 | 298.0 |
| 2026-06-23T06:30 | 29.10045 | -169.86291 | 10.362 | 298.0 |
| 2026-06-23T06:40 | 29.11400 | -169.89201 | 10.381 | 297.9 |
| 2026-06-23T06:50 | 29.12753 | -169.92085 | 10.303 | 298.1 |
| 2026-06-23T07:00 | 29.14108 | -169.94983 | 10.346 | 298.0 |
| 2026-06-23T07:10 | 29.15455 | -169.97868 | 10.297 | 298.0 |
| 2026-06-23T07:20 | 29.16804 | -170.00756 | 10.305 | 298.0 |
| 2026-06-23T07:30 | 29.18135 | -170.03617 | 10.199 | 297.9 |
| 2026-06-23T07:40 | 29.19443 | -170.06429 | 10.024 | 297.9 |
| 2026-06-23T07:50 | 29.20752 | -170.09236 | 10.010 | 298.0 |
| 2026-06-23T08:00 | 29.22067 | -170.12041 | 10.011 | 298.1 |
| 2026-06-23T08:10 | 29.23380 | -170.14857 | 10.042 | 298.0 |
| 2026-06-23T08:20 | 29.24703 | -170.17699 | 10.128 | 298.0 |
| 2026-06-23T08:30 | 29.26042 | -170.20559 | 10.204 | 298.1 |
| 2026-06-23T08:40 | 29.27384 | -170.23452 | 10.299 | 297.9 |
| 2026-06-23T08:50 | 29.28735 | -170.26337 | 10.293 | 298.1 |
| 2026-06-23T09:00 | 29.30091 | -170.29251 | 10.378 | 298.0 |
| 2026-06-23T09:10 | 29.31078 | -170.32343 | 10.353 | 290.0 |
| 2026-06-23T09:20 | 29.31643 | -170.35687 | 10.710 | 280.9 |
| 2026-06-23T09:30 | 29.32196 | -170.39022 | 10.676 | 280.7 |
| 2026-06-23T09:40 | 29.32744 | -170.42306 | 10.514 | 280.8 |
| 2026-06-23T09:50 | 29.33295 | -170.45593 | 10.525 | 280.9 |
| 2026-06-23T10:00 | 29.33845 | -170.48875 | 10.509 | 280.8 |
| 2026-06-23T10:10 | 29.34381 | -170.52132 | 10.422 | 280.6 |
| 2026-06-23T10:20 | 29.34929 | -170.55391 | 10.435 | 280.9 |
| 2026-06-23T10:30 | 29.35475 | -170.58661 | 10.467 | 280.8 |
| 2026-06-23T10:40 | 29.36021 | -170.61950 | 10.526 | 280.7 |
| 2026-06-23T10:50 | 29.36579 | -170.65261 | 10.598 | 280.9 |
| 2026-06-23T11:00 | 29.37124 | -170.68538 | 10.489 | 280.8 |
| 2026-06-23T11:10 | 29.37672 | -170.71806 | 10.459 | 280.9 |
| 2026-06-23T11:20 | 29.38210 | -170.75080 | 10.470 | 280.6 |
| 2026-06-23T11:30 | 29.38763 | -170.78372 | 10.538 | 280.9 |
| 2026-06-23T11:40 | 29.39315 | -170.81681 | 10.589 | 280.8 |
| 2026-06-23T11:50 | 29.39872 | -170.85008 | 10.646 | 280.8 |
| 2026-06-23T12:00 | 29.40426 | -170.88330 | 10.627 | 280.8 |
| 2026-06-23T12:10 | 29.40985 | -170.91674 | 10.698 | 280.8 |
| 2026-06-23T12:20 | 29.41545 | -170.95049 | 10.797 | 280.7 |
| 2026-06-23T12:30 | 29.42102 | -170.98415 | 10.764 | 280.7 |
| 2026-06-23T12:40 | 29.42667 | -171.01785 | 10.781 | 280.8 |
| 2026-06-23T12:50 | 29.43224 | -171.05113 | 10.645 | 280.8 |
| 2026-06-23T13:00 | 29.43769 | -171.08382 | 10.454 | 280.8 |
| 2026-06-23T13:10 | 29.44310 | -171.11628 | 10.380 | 280.8 |
| 2026-06-23T13:20 | 29.44855 | -171.14888 | 10.429 | 280.8 |
| 2026-06-23T13:30 | 29.45386 | -171.18112 | 10.304 | 280.7 |
| 2026-06-23T13:40 | 29.45924 | -171.21312 | 10.237 | 280.9 |
| 2026-06-23T13:50 | 29.46459 | -171.24527 | 10.278 | 280.8 |
| 2026-06-23T14:00 | 29.46997 | -171.27741 | 10.277 | 280.8 |
| 2026-06-23T14:10 | 29.47531 | -171.30989 | 10.379 | 280.6 |
| 2026-06-23T14:20 | 29.48079 | -171.34229 | 10.363 | 281.0 |
| 2026-06-23T14:30 | 29.48614 | -171.37450 | 10.296 | 280.8 |
| 2026-06-23T14:40 | 29.49150 | -171.40659 | 10.258 | 280.8 |
| 2026-06-23T14:50 | 29.49680 | -171.43841 | 10.170 | 280.8 |
| 2026-06-23T15:00 | 29.50206 | -171.47002 | 10.104 | 280.8 |
| 2026-06-23T15:10 | 29.50733 | -171.50176 | 10.142 | 280.7 |
| 2026-06-23T15:20 | 29.51262 | -171.53347 | 10.134 | 280.8 |
| 2026-06-23T15:30 | 29.51793 | -171.56529 | 10.172 | 280.8 |
| 2026-06-23T15:40 | 29.52315 | -171.59667 | 10.024 | 280.8 |
| 2026-06-23T15:50 | 29.52836 | -171.62788 | 9.976 | 280.8 |
| 2026-06-23T16:00 | 29.53349 | -171.65868 | 9.841 | 280.8 |
| 2026-06-23T16:10 | 29.53856 | -171.68897 | 9.678 | 280.9 |
| 2026-06-23T16:20 | 29.54360 | -171.71924 | 9.671 | 280.8 |
| 2026-06-23T16:30 | 29.54865 | -171.74977 | 9.753 | 280.7 |
| 2026-06-23T16:40 | 29.55370 | -171.78022 | 9.723 | 280.7 |
| 2026-06-23T16:50 | 29.55881 | -171.81076 | 9.758 | 280.8 |
| 2026-06-23T17:00 | 29.56391 | -171.84120 | 9.726 | 280.9 |
| 2026-06-23T17:10 | 29.56890 | -171.87110 | 9.550 | 280.8 |
| 2026-06-23T17:20 | 29.57401 | -171.90189 | 9.836 | 280.8 |
| 2026-06-23T17:30 | 29.57912 | -171.93284 | 9.879 | 280.7 |
| 2026-06-23T17:40 | 29.58432 | -171.96386 | 9.910 | 280.9 |
| 2026-06-23T17:50 | 29.58942 | -171.99484 | 9.889 | 280.7 |
| 2026-06-23T18:00 | 29.59459 | -172.02576 | 9.875 | 280.8 |
| 2026-06-23T18:10 | 29.59976 | -172.05678 | 9.907 | 280.8 |
| 2026-06-23T18:20 | 29.60498 | -172.08784 | 9.920 | 280.9 |
| 2026-06-23T18:30 | 29.61025 | -172.11938 | 10.072 | 280.8 |
| 2026-06-23T18:40 | 29.61538 | -172.15100 | 10.087 | 280.5 |
| 2026-06-23T18:50 | 29.62048 | -172.18058 | 9.456 | 281.2 |
| 2026-06-23T19:00 | 29.62386 | -172.19984 | 6.160 | 281.4 |
| 2026-06-23T19:10 | 29.62716 | -172.21874 | 6.045 | 281.3 |
| 2026-06-23T19:20 | 29.63224 | -172.22945 | 3.822 | 298.5 |
| 2026-06-23T19:30 | 29.62900 | -172.20931 | 6.421 | 100.4 |
| 2026-06-23T19:40 | 29.62237 | -172.17839 | 9.985 | 103.8 |
| 2026-06-23T19:50 | 29.61781 | -172.15924 | 6.226 | 105.2 |
| 2026-06-23T20:00 | 29.61698 | -172.15483 | 1.416 | 102.2 |
| 2026-06-23T20:10 | 29.61705 | -172.15496 | 0.051 | 302.6 |
| 2026-06-23T20:20 | 29.61702 | -172.15495 | 0.013 | 157.7 |
| 2026-06-23T20:30 | 29.61691 | -172.15490 | 0.041 | 158.2 |
| 2026-06-23T20:40 | 29.61694 | -172.15492 | 0.013 | 317.8 |
| 2026-06-23T20:50 | 29.61697 | -172.15485 | 0.026 | 62.6 |
| 2026-06-23T21:00 | 29.61701 | -172.15500 | 0.050 | 287.8 |
| 2026-06-23T21:10 | 29.61699 | -172.15494 | 0.022 | 111.7 |
| 2026-06-23T21:20 | 29.61744 | -172.15784 | 0.924 | 280.0 |
| 2026-06-23T21:30 | 29.61773 | -172.15972 | 0.600 | 280.0 |
| 2026-06-23T21:40 | 29.61780 | -172.15979 | 0.032 | 318.4 |
| 2026-06-23T21:50 | 29.61772 | -172.15972 | 0.037 | 141.7 |
| 2026-06-23T22:00 | 29.61767 | -172.15977 | 0.023 | 229.4 |
| 2026-06-23T22:10 | 29.61764 | -172.15923 | 0.170 | 93.8 |
| 2026-06-23T22:20 | 29.61755 | -172.15879 | 0.141 | 103.4 |
| 2026-06-23T22:30 | 29.61757 | -172.15803 | 0.239 | 88.2 |
| 2026-06-23T22:40 | 29.61756 | -172.15774 | 0.091 | 92.3 |
| 2026-06-23T22:50 | 29.61744 | -172.15693 | 0.257 | 100.0 |
| 2026-06-23T23:00 | 29.61737 | -172.15682 | 0.043 | 122.1 |
| 2026-06-23T23:10 | 29.61733 | -172.15618 | 0.201 | 94.4 |
| 2026-06-23T23:20 | 29.61727 | -172.15624 | 0.028 | 219.7 |
| 2026-06-23T23:30 | 29.61722 | -172.15621 | 0.020 | 159.2 |
| 2026-06-23T23:40 | 29.61727 | -172.15622 | 0.020 | 354.6 |
| 2026-06-23T23:50 | 29.61741 | -172.15620 | 0.048 | 7.1 |
| 2026-06-24T00:00 | 29.61730 | -172.15624 | 0.041 | 197.2 |
| 2026-06-24T00:10 | 29.61723 | -172.15622 | 0.025 | 169.1 |
| 2026-06-24T00:20 | 29.61726 | -172.15621 | 0.012 | 14.8 |
| 2026-06-24T00:30 | 29.61733 | -172.15621 | 0.023 | 4.7 |
| 2026-06-24T00:40 | 29.61686 | -172.15536 | 0.314 | 122.5 |
| 2026-06-24T00:50 | 29.61577 | -172.16822 | 4.051 | 264.5 |
| 2026-06-24T01:00 | 29.62019 | -172.17480 | 2.602 | 307.6 |
| 2026-06-24T01:10 | 29.62003 | -172.17476 | 0.059 | 166.9 |
| 2026-06-24T01:20 | 29.61995 | -172.17480 | 0.032 | 208.3 |
| 2026-06-24T01:30 | 29.62005 | -172.17481 | 0.033 | 356.1 |
| 2026-06-24T01:40 | 29.62004 | -172.17493 | 0.038 | 265.1 |
| 2026-06-24T01:50 | 29.62006 | -172.17477 | 0.051 | 79.5 |
| 2026-06-24T02:00 | 29.61997 | -172.17483 | 0.040 | 209.6 |
| 2026-06-24T02:10 | 29.62005 | -172.17486 | 0.033 | 346.1 |
| 2026-06-24T02:20 | 29.62136 | -172.17760 | 0.981 | 298.6 |
| 2026-06-24T02:30 | 29.62262 | -172.18033 | 0.969 | 297.9 |
| 2026-06-24T02:40 | 29.62263 | -172.18047 | 0.043 | 272.9 |
| 2026-06-24T02:50 | 29.62269 | -172.18041 | 0.028 | 41.1 |
| 2026-06-24T03:00 | 29.62259 | -172.18040 | 0.036 | 171.9 |
| 2026-06-24T03:10 | 29.62257 | -172.18043 | 0.014 | 243.5 |
| 2026-06-24T03:20 | 29.62267 | -172.18038 | 0.038 | 27.5 |
| 2026-06-24T03:30 | 29.62270 | -172.18038 | 0.011 | 351.7 |
| 2026-06-24T03:40 | 29.62266 | -172.18038 | 0.014 | 171.1 |
| 2026-06-24T03:50 | 29.62269 | -172.18041 | 0.015 | 313.3 |
| 2026-06-24T04:00 | 29.62260 | -172.18031 | 0.044 | 135.8 |
| 2026-06-24T04:10 | 29.62261 | -172.18035 | 0.012 | 287.2 |
| 2026-06-24T04:20 | 29.62259 | -172.18040 | 0.017 | 248.0 |
| 2026-06-24T04:30 | 29.62246 | -172.18031 | 0.057 | 148.7 |
| 2026-06-24T04:40 | 29.63309 | -172.18831 | 4.567 | 326.7 |
| 2026-06-24T04:50 | 29.65267 | -172.20605 | 8.964 | 321.6 |
| 2026-06-24T05:00 | 29.67503 | -172.22484 | 9.955 | 323.7 |
| 2026-06-24T05:10 | 29.69745 | -172.24373 | 9.989 | 323.6 |
| 2026-06-24T05:20 | 29.71986 | -172.26275 | 10.011 | 323.5 |
| 2026-06-24T05:30 | 29.74219 | -172.28163 | 9.961 | 323.6 |
| 2026-06-24T05:40 | 29.76495 | -172.30081 | 10.139 | 323.7 |
| 2026-06-24T05:50 | 29.78768 | -172.32011 | 10.154 | 323.5 |
| 2026-06-24T06:00 | 29.81005 | -172.33908 | 9.986 | 323.5 |
| 2026-06-24T06:10 | 29.83249 | -172.35812 | 10.022 | 323.5 |
| 2026-06-24T06:20 | 29.85501 | -172.37711 | 10.031 | 323.7 |
| 2026-06-24T06:30 | 29.87746 | -172.39615 | 10.020 | 323.5 |
| 2026-06-24T06:40 | 29.89977 | -172.41507 | 9.957 | 323.5 |
| 2026-06-24T06:50 | 29.92215 | -172.43404 | 9.988 | 323.6 |
| 2026-06-24T07:00 | 29.94484 | -172.45321 | 10.110 | 323.6 |
| 2026-06-24T07:10 | 29.96743 | -172.47268 | 10.140 | 323.1 |
| 2026-06-24T07:20 | 29.99281 | -172.48587 | 9.996 | 335.7 |
| 2026-06-24T07:30 | 30.01847 | -172.49967 | 10.172 | 334.9 |
| 2026-06-24T07:40 | 30.04424 | -172.51340 | 10.193 | 335.1 |
| 2026-06-24T07:50 | 30.06995 | -172.52719 | 10.183 | 335.0 |
| 2026-06-24T08:00 | 30.09617 | -172.53698 | 9.897 | 342.0 |
| 2026-06-24T08:10 | 30.12440 | -172.53703 | 10.133 | 359.9 |
| 2026-06-24T08:20 | 30.14906 | -172.53685 | 8.850 | 0.3 |
| 2026-06-24T08:30 | 30.15630 | -172.52841 | 3.701 | 45.4 |
| 2026-06-24T08:40 | 30.14899 | -172.51930 | 3.869 | 132.7 |
| 2026-06-24T08:50 | 30.12722 | -172.52002 | 7.817 | 181.7 |
| 2026-06-24T09:00 | 30.09848 | -172.51736 | 10.352 | 175.4 |
| 2026-06-24T09:10 | 30.08772 | -172.51036 | 4.436 | 150.5 |
| 2026-06-24T09:20 | 30.08847 | -172.50712 | 1.046 | 75.2 |
| 2026-06-24T09:30 | 30.08855 | -172.50716 | 0.030 | 337.0 |
| 2026-06-24T09:40 | 30.08848 | -172.50718 | 0.026 | 196.8 |
| 2026-06-24T09:50 | 30.08851 | -172.50714 | 0.017 | 47.2 |
| 2026-06-24T10:00 | 30.08857 | -172.50721 | 0.030 | 315.8 |
| 2026-06-24T10:10 | 30.08846 | -172.50720 | 0.040 | 177.3 |
| 2026-06-24T10:20 | 30.08852 | -172.50725 | 0.026 | 326.9 |
| 2026-06-24T10:30 | 30.08846 | -172.50918 | 0.602 | 267.8 |
| 2026-06-24T10:40 | 30.08835 | -172.51232 | 0.981 | 267.8 |
| 2026-06-24T10:50 | 30.08841 | -172.51235 | 0.023 | 335.1 |
| 2026-06-24T11:00 | 30.08842 | -172.51238 | 0.011 | 294.0 |
| 2026-06-24T11:10 | 30.08830 | -172.51240 | 0.044 | 187.4 |
| 2026-06-24T11:20 | 30.08832 | -172.51235 | 0.015 | 64.8 |
| 2026-06-24T11:30 | 30.08841 | -172.51234 | 0.035 | 6.7 |
| 2026-06-24T11:40 | 30.08829 | -172.51235 | 0.046 | 182.3 |
| 2026-06-24T11:50 | 30.08829 | -172.51237 | 0.008 | 285.4 |
| 2026-06-24T12:00 | 30.08839 | -172.51240 | 0.037 | 347.9 |
| 2026-06-24T12:10 | 30.08832 | -172.51239 | 0.028 | 173.6 |
| 2026-06-24T12:20 | 30.08829 | -172.51240 | 0.008 | 206.4 |
| 2026-06-24T12:30 | 30.08835 | -172.51237 | 0.020 | 22.3 |
| 2026-06-24T12:40 | 30.08865 | -172.51221 | 0.120 | 25.6 |
| 2026-06-24T12:50 | 30.09979 | -172.52776 | 6.290 | 309.5 |
| 2026-06-24T13:00 | 30.11406 | -172.55565 | 10.100 | 300.5 |
| 2026-06-24T13:10 | 30.12882 | -172.58338 | 10.145 | 301.5 |
| 2026-06-24T13:20 | 30.14439 | -172.61085 | 10.231 | 303.1 |
| 2026-06-24T13:30 | 30.15991 | -172.63840 | 10.242 | 303.0 |
| 2026-06-24T13:40 | 30.17568 | -172.66613 | 10.338 | 303.2 |
| 2026-06-24T13:50 | 30.19137 | -172.69384 | 10.314 | 303.1 |
| 2026-06-24T14:00 | 30.20682 | -172.72122 | 10.182 | 303.0 |
| 2026-06-24T14:10 | 30.22320 | -172.74768 | 10.128 | 305.5 |
| 2026-06-24T14:20 | 30.24502 | -172.76806 | 10.083 | 320.9 |
| 2026-06-24T14:30 | 30.27083 | -172.78294 | 10.363 | 333.4 |
| 2026-06-24T14:40 | 30.29739 | -172.79736 | 10.539 | 334.8 |
| 2026-06-24T14:50 | 30.32443 | -172.81211 | 10.738 | 334.7 |
| 2026-06-24T15:00 | 30.35115 | -172.82678 | 10.622 | 334.5 |
| 2026-06-24T15:10 | 30.37747 | -172.84131 | 10.476 | 334.4 |
| 2026-06-24T15:20 | 30.40382 | -172.85564 | 10.456 | 334.8 |
| 2026-06-24T15:30 | 30.42985 | -172.86994 | 10.351 | 334.5 |
| 2026-06-24T15:40 | 30.45625 | -172.88447 | 10.498 | 334.5 |
| 2026-06-24T15:50 | 30.48308 | -172.89921 | 10.666 | 334.6 |
| 2026-06-24T16:00 | 30.50985 | -172.91383 | 10.631 | 334.7 |
| 2026-06-24T16:10 | 30.53659 | -172.92853 | 10.627 | 334.6 |
| 2026-06-24T16:20 | 30.56342 | -172.94334 | 10.674 | 334.5 |
| 2026-06-24T16:30 | 30.59014 | -172.95794 | 10.609 | 334.7 |
| 2026-06-24T16:40 | 30.61678 | -172.97260 | 10.591 | 334.6 |
| 2026-06-24T16:50 | 30.64324 | -172.98710 | 10.513 | 334.6 |
| 2026-06-24T17:00 | 30.67012 | -172.99946 | 10.383 | 338.3 |
| 2026-06-24T17:10 | 30.69311 | -172.99035 | 8.723 | 18.9 |
| 2026-06-24T17:20 | 30.69320 | -172.95895 | 9.744 | 89.8 |
| 2026-06-24T17:30 | 30.67226 | -172.94078 | 9.395 | 143.1 |
| 2026-06-24T17:40 | 30.64664 | -172.92701 | 10.142 | 155.1 |
| 2026-06-24T17:50 | 30.62100 | -172.91324 | 10.148 | 155.1 |
| 2026-06-24T18:00 | 30.59612 | -172.89980 | 9.859 | 154.9 |
| 2026-06-24T18:10 | 30.57345 | -172.88887 | 8.819 | 157.4 |
| 2026-06-24T18:20 | 30.54784 | -172.89827 | 9.644 | 197.6 |
| 2026-06-24T18:30 | 30.52104 | -172.90645 | 9.951 | 194.8 |
| 2026-06-24T18:40 | 30.50147 | -172.91042 | 7.134 | 189.9 |
| 2026-06-24T18:50 | 30.49836 | -172.90454 | 2.142 | 121.4 |
| 2026-06-24T19:00 | 30.49794 | -172.90446 | 0.151 | 170.8 |
| 2026-06-24T19:10 | 30.49799 | -172.90444 | 0.019 | 16.7 |
| 2026-06-24T19:20 | 30.49793 | -172.90451 | 0.030 | 219.6 |
| 2026-06-24T19:30 | 30.49791 | -172.90450 | 0.005 | 165.1 |
| 2026-06-24T19:40 | 30.49789 | -172.90443 | 0.025 | 111.0 |
| 2026-06-24T19:50 | 30.49791 | -172.90451 | 0.028 | 288.8 |
| 2026-06-24T20:00 | 30.49789 | -172.90443 | 0.026 | 111.8 |
| 2026-06-24T20:10 | 30.49793 | -172.90450 | 0.026 | 307.8 |
| 2026-06-24T20:20 | 30.49841 | -172.90453 | 0.172 | 356.7 |
| 2026-06-24T20:30 | 30.50109 | -172.90541 | 1.000 | 344.1 |
| 2026-06-24T20:40 | 30.50315 | -172.90613 | 0.771 | 343.3 |
| 2026-06-24T20:50 | 30.50322 | -172.90617 | 0.030 | 329.8 |
| 2026-06-24T21:00 | 30.50324 | -172.90607 | 0.033 | 79.2 |
| 2026-06-24T21:10 | 30.50321 | -172.90614 | 0.023 | 248.4 |
| 2026-06-24T21:20 | 30.50310 | -172.90608 | 0.043 | 154.3 |
| 2026-06-24T21:30 | 30.50314 | -172.90606 | 0.013 | 29.2 |
| 2026-06-24T21:40 | 30.50315 | -172.90612 | 0.019 | 282.1 |
| 2026-06-24T21:50 | 30.50321 | -172.90608 | 0.025 | 28.0 |
| 2026-06-24T22:00 | 30.50318 | -172.90611 | 0.014 | 219.9 |
| 2026-06-24T22:10 | 30.50319 | -172.90612 | 0.006 | 328.3 |
| 2026-06-24T22:20 | 30.50310 | -172.90609 | 0.035 | 166.3 |
| 2026-06-24T22:30 | 30.50321 | -172.90611 | 0.040 | 352.9 |
| 2026-06-24T22:40 | 30.50321 | -172.90614 | 0.010 | 263.8 |
| 2026-06-24T22:50 | 30.50322 | -172.90616 | 0.008 | 302.2 |
| 2026-06-24T23:00 | 30.50333 | -172.90619 | 0.042 | 346.8 |
| 2026-06-24T23:10 | 30.50900 | -172.90650 | 2.039 | 357.3 |
| 2026-06-24T23:20 | 30.53777 | -172.91804 | 10.932 | 340.9 |
| 2026-06-24T23:30 | 30.56575 | -172.93084 | 10.803 | 338.4 |
| 2026-06-24T23:40 | 30.59333 | -172.94348 | 10.647 | 338.4 |
| 2026-06-24T23:50 | 30.61831 | -172.95466 | 9.617 | 338.8 |
| 2026-06-25T00:00 | 30.61865 | -172.95205 | 0.820 | 81.5 |
| 2026-06-25T00:10 | 30.61891 | -172.95195 | 0.098 | 18.1 |
| 2026-06-25T00:20 | 30.61892 | -172.95192 | 0.010 | 77.8 |
| 2026-06-25T00:30 | 30.61893 | -172.95244 | 0.164 | 271.6 |
| 2026-06-25T00:40 | 30.61907 | -172.95563 | 0.990 | 272.9 |
| 2026-06-25T00:50 | 30.61909 | -172.95576 | 0.040 | 280.3 |
| 2026-06-25T01:00 | 30.61899 | -172.95576 | 0.033 | 184.2 |
| 2026-06-25T01:10 | 30.61909 | -172.95579 | 0.036 | 346.1 |
| 2026-06-25T01:20 | 30.61907 | -172.95550 | 0.090 | 94.6 |
| 2026-06-25T01:30 | 30.61904 | -172.95491 | 0.184 | 93.9 |
| 2026-06-25T01:40 | 30.61905 | -172.95496 | 0.016 | 287.9 |
| 2026-06-25T01:50 | 30.61908 | -172.95493 | 0.015 | 49.8 |
| 2026-06-25T02:00 | 30.61895 | -172.95501 | 0.052 | 211.5 |
| 2026-06-25T02:10 | 30.61910 | -172.95499 | 0.053 | 7.7 |
| 2026-06-25T02:20 | 30.61905 | -172.95506 | 0.029 | 232.6 |
| 2026-06-25T02:30 | 30.62297 | -172.95305 | 1.540 | 24.0 |
| 2026-06-25T02:40 | 30.64086 | -172.97649 | 9.705 | 311.4 |
| 2026-06-25T02:50 | 30.66109 | -173.00199 | 10.742 | 312.5 |
| 2026-06-25T03:00 | 30.68263 | -173.02626 | 10.793 | 315.8 |
| 2026-06-25T03:10 | 30.70386 | -173.05044 | 10.695 | 315.5 |
| 2026-06-25T03:20 | 30.72515 | -173.07476 | 10.737 | 315.4 |
| 2026-06-25T03:30 | 30.74649 | -173.09911 | 10.756 | 315.4 |
| 2026-06-25T03:40 | 30.76765 | -173.12323 | 10.660 | 315.5 |
| 2026-06-25T03:50 | 30.78895 | -173.14750 | 10.726 | 315.5 |
| 2026-06-25T04:00 | 30.81000 | -173.17150 | 10.601 | 315.4 |
| 2026-06-25T04:10 | 30.83101 | -173.19564 | 10.624 | 315.2 |
| 2026-06-25T04:20 | 30.85143 | -173.22064 | 10.662 | 313.4 |
| 2026-06-25T04:30 | 30.86983 | -173.24785 | 10.707 | 308.1 |
| 2026-06-25T04:40 | 30.88845 | -173.27552 | 10.867 | 307.9 |
| 2026-06-25T04:50 | 30.90718 | -173.30327 | 10.910 | 308.1 |
| 2026-06-25T05:00 | 30.92591 | -173.33111 | 10.929 | 308.0 |
| 2026-06-25T05:10 | 30.94452 | -173.35870 | 10.841 | 308.1 |
| 2026-06-25T05:20 | 30.96337 | -173.38660 | 10.968 | 308.1 |
| 2026-06-25T05:30 | 30.98209 | -173.41456 | 10.953 | 307.9 |
| 2026-06-25T05:40 | 31.00099 | -173.44255 | 10.998 | 308.1 |
| 2026-06-25T05:50 | 31.01923 | -173.47080 | 10.918 | 306.9 |
| 2026-06-25T06:00 | 31.03654 | -173.49957 | 10.850 | 305.0 |
| 2026-06-25T06:10 | 31.05391 | -173.52848 | 10.898 | 304.9 |
| 2026-06-25T06:20 | 31.07144 | -173.55758 | 10.975 | 305.0 |
| 2026-06-25T06:30 | 31.08858 | -173.58597 | 10.716 | 305.1 |
| 2026-06-25T06:40 | 31.10553 | -173.61421 | 10.636 | 304.9 |
| 2026-06-25T06:50 | 31.12268 | -173.64246 | 10.680 | 305.2 |
| 2026-06-25T07:00 | 31.12697 | -173.67266 | 9.453 | 279.4 |
| 2026-06-25T07:10 | 31.10211 | -173.67981 | 9.194 | 193.9 |
| 2026-06-25T07:20 | 31.08601 | -173.67994 | 5.779 | 180.4 |
| 2026-06-25T07:30 | 31.09342 | -173.68625 | 3.301 | 323.8 |
| 2026-06-25T07:40 | 31.11832 | -173.67297 | 9.834 | 24.7 |
| 2026-06-25T07:50 | 31.13846 | -173.66085 | 8.141 | 27.4 |
| 2026-06-25T08:00 | 31.14161 | -173.65548 | 2.008 | 55.7 |
| 2026-06-25T08:10 | 31.14148 | -173.65496 | 0.167 | 106.5 |
| 2026-06-25T08:20 | 31.14153 | -173.65493 | 0.022 | 26.2 |
| 2026-06-25T08:30 | 31.14154 | -173.65493 | 0.002 | 304.9 |
| 2026-06-25T08:40 | 31.14154 | -173.65493 | 0.001 | 0.0 |
| 2026-06-25T08:50 | 31.14154 | -173.65502 | 0.027 | 270.8 |
| 2026-06-25T09:00 | 31.14183 | -173.65822 | 0.995 | 275.9 |
| 2026-06-25T09:10 | 31.14197 | -173.65963 | 0.438 | 276.7 |
| 2026-06-25T09:20 | 31.14191 | -173.65956 | 0.031 | 136.7 |
| 2026-06-25T09:30 | 31.14190 | -173.65960 | 0.010 | 249.4 |
| 2026-06-25T09:40 | 31.14189 | -173.65964 | 0.013 | 263.5 |
| 2026-06-25T09:50 | 31.14194 | -173.65966 | 0.020 | 337.1 |
| 2026-06-25T10:00 | 31.14202 | -173.65960 | 0.034 | 31.9 |
| 2026-06-25T10:10 | 31.14200 | -173.65963 | 0.011 | 227.9 |
| 2026-06-25T10:20 | 31.14193 | -173.65959 | 0.030 | 157.5 |
| 2026-06-25T10:30 | 31.14201 | -173.65966 | 0.036 | 323.8 |
| 2026-06-25T10:40 | 31.14208 | -173.65920 | 0.146 | 79.6 |
| 2026-06-25T10:50 | 31.14665 | -173.67355 | 4.725 | 290.3 |
| 2026-06-25T11:00 | 31.16512 | -173.69686 | 9.787 | 312.6 |
| 2026-06-25T11:10 | 31.18407 | -173.72043 | 9.961 | 313.1 |
| 2026-06-25T11:20 | 31.20365 | -173.74462 | 10.253 | 313.3 |
| 2026-06-25T11:30 | 31.22552 | -173.76776 | 10.613 | 317.7 |
| 2026-06-25T11:40 | 31.24774 | -173.79050 | 10.623 | 318.7 |
| 2026-06-25T11:50 | 31.27069 | -173.81155 | 10.491 | 321.8 |
| 2026-06-25T12:00 | 31.29308 | -173.83200 | 10.214 | 321.9 |
| 2026-06-25T12:10 | 31.31528 | -173.85224 | 10.122 | 321.9 |
| 2026-06-25T12:20 | 31.33749 | -173.87251 | 10.131 | 321.9 |
| 2026-06-25T12:30 | 31.35968 | -173.89277 | 10.121 | 321.9 |
| 2026-06-25T12:40 | 31.38169 | -173.91285 | 10.034 | 322.0 |
| 2026-06-25T12:50 | 31.40378 | -173.93315 | 10.101 | 321.8 |
| 2026-06-25T13:00 | 31.42615 | -173.95353 | 10.190 | 322.0 |
| 2026-06-25T13:10 | 31.44883 | -173.97425 | 10.343 | 321.9 |
| 2026-06-25T13:20 | 31.47186 | -173.99533 | 10.509 | 321.9 |
| 2026-06-25T13:30 | 31.49493 | -174.01638 | 10.516 | 322.0 |
| 2026-06-25T13:40 | 31.51801 | -174.03753 | 10.533 | 321.9 |
| 2026-06-25T13:50 | 31.54123 | -174.05878 | 10.594 | 321.9 |
| 2026-06-25T14:00 | 31.56447 | -174.08007 | 10.605 | 321.9 |
| 2026-06-25T14:10 | 31.58778 | -174.10147 | 10.643 | 321.8 |
| 2026-06-25T14:20 | 31.61108 | -174.12261 | 10.591 | 322.2 |
| 2026-06-25T14:30 | 31.63446 | -174.14416 | 10.691 | 321.8 |
| 2026-06-25T14:40 | 31.65782 | -174.16552 | 10.649 | 322.0 |
| 2026-06-25T14:50 | 31.68105 | -174.18668 | 10.573 | 322.1 |
| 2026-06-25T15:00 | 31.70430 | -174.20820 | 10.644 | 321.6 |
| 2026-06-25T15:10 | 31.72780 | -174.22970 | 10.712 | 322.0 |
| 2026-06-25T15:20 | 31.75115 | -174.25121 | 10.669 | 321.8 |
| 2026-06-25T15:30 | 31.77637 | -174.26403 | 9.871 | 336.5 |
| 2026-06-25T15:40 | 31.78336 | -174.23716 | 8.616 | 73.0 |
| 2026-06-25T15:50 | 31.78265 | -174.20394 | 10.192 | 91.4 |
| 2026-06-25T16:00 | 31.76552 | -174.18001 | 9.573 | 130.0 |
| 2026-06-25T16:10 | 31.74851 | -174.15624 | 9.513 | 129.9 |
| 2026-06-25T16:20 | 31.72928 | -174.13385 | 9.743 | 135.1 |
| 2026-06-25T16:30 | 31.70809 | -174.11302 | 9.935 | 139.9 |
| 2026-06-25T16:40 | 31.68698 | -174.09231 | 9.893 | 140.0 |
| 2026-06-25T16:50 | 31.66419 | -174.07559 | 9.658 | 147.9 |
| 2026-06-25T17:00 | 31.63676 | -174.07320 | 9.878 | 175.7 |
| 2026-06-25T17:10 | 31.60926 | -174.07308 | 9.874 | 179.8 |
| 2026-06-25T17:20 | 31.59925 | -174.06687 | 4.070 | 152.0 |
| 2026-06-25T17:30 | 31.59907 | -174.06679 | 0.069 | 161.5 |
| 2026-06-25T17:40 | 31.59912 | -174.06674 | 0.024 | 38.9 |
| 2026-06-25T17:50 | 31.59910 | -174.06676 | 0.009 | 211.4 |
| 2026-06-25T18:00 | 31.59907 | -174.06677 | 0.009 | 195.3 |
| 2026-06-25T18:10 | 31.59912 | -174.06681 | 0.019 | 321.5 |
| 2026-06-25T18:20 | 31.59962 | -174.06650 | 0.205 | 27.0 |
| 2026-06-25T18:30 | 31.60219 | -174.06521 | 1.004 | 23.3 |
| 2026-06-25T18:40 | 31.60400 | -174.06430 | 0.705 | 23.2 |
| 2026-06-25T18:50 | 31.60402 | -174.06425 | 0.020 | 61.5 |
| 2026-06-25T19:00 | 31.60405 | -174.06428 | 0.012 | 313.8 |
| 2026-06-25T19:10 | 31.60403 | -174.06432 | 0.014 | 247.3 |
| 2026-06-25T19:20 | 31.60404 | -174.06429 | 0.008 | 64.0 |
| 2026-06-25T19:30 | 31.60405 | -174.06433 | 0.011 | 279.5 |
| 2026-06-25T19:40 | 31.60396 | -174.06437 | 0.032 | 203.2 |
| 2026-06-25T19:50 | 31.60401 | -174.06427 | 0.035 | 64.5 |
| 2026-06-25T20:00 | 31.60397 | -174.06437 | 0.035 | 249.1 |
| 2026-06-25T20:10 | 31.60394 | -174.06433 | 0.017 | 133.9 |
| 2026-06-25T20:20 | 31.60403 | -174.06428 | 0.036 | 25.9 |
| 2026-06-25T20:30 | 31.60395 | -174.06437 | 0.040 | 221.9 |
| 2026-06-25T20:40 | 31.61054 | -174.06291 | 2.408 | 10.7 |
| 2026-06-25T20:50 | 31.63756 | -174.07304 | 10.191 | 342.2 |
| 2026-06-25T21:00 | 31.66463 | -174.08300 | 10.186 | 342.5 |
| 2026-06-25T21:10 | 31.69186 | -174.09279 | 10.231 | 342.9 |
| 2026-06-25T21:20 | 31.71848 | -174.10227 | 9.990 | 343.1 |
| 2026-06-25T21:30 | 31.74439 | -174.11167 | 9.738 | 342.8 |
| 2026-06-25T21:40 | 31.77048 | -174.12101 | 9.797 | 343.0 |
| 2026-06-25T21:50 | 31.79679 | -174.13047 | 9.882 | 342.9 |
| 2026-06-25T22:00 | 31.82308 | -174.13978 | 9.860 | 343.2 |
| 2026-06-25T22:10 | 31.84925 | -174.14921 | 9.832 | 342.9 |
| 2026-06-25T22:20 | 31.87517 | -174.15849 | 9.729 | 343.0 |
| 2026-06-25T22:30 | 31.90117 | -174.16784 | 9.765 | 342.9 |
| 2026-06-25T22:40 | 31.92776 | -174.17734 | 9.980 | 343.1 |
| 2026-06-25T22:50 | 31.95441 | -174.18686 | 10.003 | 343.1 |
| 2026-06-25T23:00 | 31.98116 | -174.19690 | 10.087 | 342.3 |
| 2026-06-25T23:10 | 32.00803 | -174.20719 | 10.146 | 341.9 |
| 2026-06-25T23:20 | 32.03483 | -174.21734 | 10.110 | 342.1 |
| 2026-06-25T23:30 | 32.06138 | -174.22747 | 10.024 | 342.0 |
| 2026-06-25T23:40 | 32.08716 | -174.23949 | 9.961 | 338.4 |
| 2026-06-25T23:50 | 32.10336 | -174.24352 | 5.946 | 348.0 |
| 2026-06-26T00:00 | 32.10329 | -174.24176 | 0.541 | 92.7 |
| 2026-06-26T00:10 | 32.10350 | -174.24217 | 0.146 | 300.1 |
| 2026-06-26T00:20 | 32.10347 | -174.24220 | 0.013 | 230.3 |
| 2026-06-26T00:30 | 32.10348 | -174.24214 | 0.020 | 81.9 |
| 2026-06-26T00:40 | 32.10357 | -174.24219 | 0.035 | 333.9 |
| 2026-06-26T00:50 | 32.10346 | -174.24223 | 0.041 | 200.7 |
| 2026-06-26T01:00 | 32.10356 | -174.24220 | 0.038 | 15.8 |
| 2026-06-26T01:10 | 32.10429 | -174.24336 | 0.440 | 306.4 |
| 2026-06-26T01:20 | 32.10564 | -174.24526 | 0.758 | 309.9 |
| 2026-06-26T01:30 | 32.10563 | -174.24524 | 0.009 | 110.7 |
| 2026-06-26T01:40 | 32.10567 | -174.24525 | 0.012 | 342.3 |
| 2026-06-26T01:50 | 32.10558 | -174.24526 | 0.033 | 187.0 |
| 2026-06-26T02:00 | 32.10559 | -174.24522 | 0.014 | 63.3 |
| 2026-06-26T02:10 | 32.10563 | -174.24523 | 0.012 | 348.7 |
| 2026-06-26T02:20 | 32.10566 | -174.24530 | 0.025 | 299.4 |
| 2026-06-26T02:30 | 32.10560 | -174.24529 | 0.022 | 171.3 |
| 2026-06-26T02:40 | 32.10557 | -174.24519 | 0.031 | 113.6 |
| 2026-06-26T02:50 | 32.10560 | -174.24527 | 0.026 | 298.4 |
| 2026-06-26T03:00 | 32.10556 | -174.24523 | 0.020 | 139.6 |
| 2026-06-26T03:10 | 32.10560 | -174.24525 | 0.015 | 336.9 |
| 2026-06-26T03:20 | 32.11397 | -174.25090 | 3.468 | 330.1 |
| 2026-06-26T03:30 | 32.13384 | -174.26980 | 9.178 | 321.0 |
| 2026-06-26T03:40 | 32.15571 | -174.28863 | 9.736 | 323.8 |
| 2026-06-26T03:50 | 32.17831 | -174.30772 | 9.991 | 324.3 |
| 2026-06-26T04:00 | 32.20106 | -174.32723 | 10.110 | 323.9 |
| 2026-06-26T04:10 | 32.22483 | -174.34751 | 10.544 | 324.1 |
| 2026-06-26T04:20 | 32.24812 | -174.36741 | 10.334 | 324.0 |
| 2026-06-26T04:30 | 32.27137 | -174.38753 | 10.362 | 323.7 |
| 2026-06-26T04:40 | 32.29411 | -174.40689 | 10.077 | 324.1 |
| 2026-06-26T04:50 | 32.31677 | -174.42631 | 10.062 | 324.0 |
| 2026-06-26T05:00 | 32.33935 | -174.44588 | 10.070 | 323.7 |
| 2026-06-26T05:10 | 32.36200 | -174.46519 | 10.038 | 324.1 |
| 2026-06-26T05:20 | 32.38470 | -174.48467 | 10.083 | 323.9 |
| 2026-06-26T05:30 | 32.40744 | -174.50429 | 10.117 | 323.8 |
| 2026-06-26T05:40 | 32.43023 | -174.52383 | 10.120 | 324.0 |
| 2026-06-26T05:50 | 32.45282 | -174.54323 | 10.033 | 323.9 |
| 2026-06-26T06:00 | 32.47562 | -174.56283 | 10.132 | 323.9 |
| 2026-06-26T06:10 | 32.49892 | -174.58165 | 10.138 | 325.6 |
| 2026-06-26T06:20 | 32.52114 | -174.60091 | 9.901 | 323.7 |
| 2026-06-26T06:30 | 32.53967 | -174.61806 | 8.455 | 321.9 |
| 2026-06-26T06:40 | 32.56097 | -174.63787 | 9.736 | 321.8 |
| 2026-06-26T06:50 | 32.58299 | -174.65681 | 9.782 | 323.9 |
| 2026-06-26T07:00 | 32.60544 | -174.67483 | 9.746 | 325.8 |
| 2026-06-26T07:10 | 32.62791 | -174.69377 | 9.912 | 324.5 |
| 2026-06-26T07:20 | 32.65024 | -174.71311 | 9.940 | 323.8 |
| 2026-06-26T07:30 | 32.67295 | -174.73281 | 10.114 | 323.7 |
| 2026-06-26T07:40 | 32.69525 | -174.75198 | 9.902 | 324.0 |
| 2026-06-26T07:50 | 32.71735 | -174.77103 | 9.820 | 323.9 |
| 2026-06-26T08:00 | 32.73442 | -174.78557 | 7.555 | 324.2 |
| 2026-06-26T08:10 | 32.75578 | -174.80416 | 9.520 | 323.7 |
| 2026-06-26T08:20 | 32.77838 | -174.82360 | 10.032 | 324.0 |
| 2026-06-26T08:30 | 32.80121 | -174.84340 | 10.162 | 323.8 |
| 2026-06-26T08:40 | 32.82429 | -174.86329 | 10.252 | 324.0 |
| 2026-06-26T08:50 | 32.84719 | -174.88304 | 10.169 | 323.9 |
| 2026-06-26T09:00 | 32.87016 | -174.90283 | 10.201 | 324.0 |
| 2026-06-26T09:10 | 32.89352 | -174.92299 | 10.375 | 323.9 |
| 2026-06-26T09:20 | 32.91701 | -174.94340 | 10.458 | 323.8 |
| 2026-06-26T09:30 | 32.94016 | -174.96337 | 10.281 | 324.0 |
| 2026-06-26T09:40 | 32.96314 | -174.98323 | 10.211 | 323.9 |
| 2026-06-26T09:50 | 32.98554 | -175.00260 | 9.954 | 323.9 |
| 2026-06-26T10:00 | 33.00797 | -175.02200 | 9.967 | 323.9 |
| 2026-06-26T10:10 | 33.03040 | -175.04139 | 9.965 | 323.9 |
| 2026-06-26T10:20 | 33.05267 | -175.06075 | 9.912 | 323.8 |
| 2026-06-26T10:30 | 33.07526 | -175.08026 | 10.030 | 324.0 |
| 2026-06-26T10:40 | 33.09762 | -175.09962 | 9.936 | 323.9 |
| 2026-06-26T10:50 | 33.11997 | -175.11891 | 9.920 | 324.0 |
| 2026-06-26T11:00 | 33.14234 | -175.13827 | 9.939 | 323.9 |
| 2026-06-26T11:10 | 33.16493 | -175.15786 | 10.042 | 323.9 |
| 2026-06-26T11:20 | 33.18756 | -175.17746 | 10.053 | 323.9 |
| 2026-06-26T11:30 | 33.20984 | -175.19694 | 9.931 | 323.7 |
| 2026-06-26T11:40 | 33.23246 | -175.21643 | 10.030 | 324.1 |
| 2026-06-26T11:50 | 33.25507 | -175.23608 | 10.053 | 323.9 |
| 2026-06-26T12:00 | 33.27771 | -175.25576 | 10.068 | 323.9 |
| 2026-06-26T12:10 | 33.30020 | -175.27529 | 9.995 | 323.9 |
| 2026-06-26T12:20 | 33.32280 | -175.29493 | 10.050 | 323.9 |
| 2026-06-26T12:30 | 33.34551 | -175.31455 | 10.074 | 324.1 |
| 2026-06-26T12:40 | 33.36783 | -175.33389 | 9.911 | 324.0 |
| 2026-06-26T12:50 | 33.39037 | -175.35350 | 10.020 | 323.9 |
| 2026-06-26T13:00 | 33.41294 | -175.37316 | 10.039 | 323.9 |
| 2026-06-26T13:10 | 33.43556 | -175.39282 | 10.051 | 323.9 |
| 2026-06-26T13:20 | 33.45795 | -175.41236 | 9.963 | 323.8 |
| 2026-06-26T13:30 | 33.48073 | -175.43202 | 10.100 | 324.1 |
| 2026-06-26T13:40 | 33.50324 | -175.45172 | 10.023 | 323.8 |
| 2026-06-26T13:50 | 33.52580 | -175.47122 | 10.004 | 324.1 |
| 2026-06-26T14:00 | 33.54843 | -175.49100 | 10.072 | 323.8 |
| 2026-06-26T14:10 | 33.57116 | -175.51080 | 10.102 | 323.9 |
| 2026-06-26T14:20 | 33.59341 | -175.53015 | 9.884 | 323.9 |
| 2026-06-26T14:30 | 33.61571 | -175.54965 | 9.925 | 323.8 |
| 2026-06-26T14:40 | 33.63821 | -175.56918 | 9.986 | 324.0 |
| 2026-06-26T14:50 | 33.66083 | -175.58896 | 10.065 | 323.8 |
| 2026-06-26T15:00 | 33.68348 | -175.60865 | 10.058 | 324.0 |
| 2026-06-26T15:10 | 33.70574 | -175.62801 | 9.882 | 324.0 |
| 2026-06-26T15:20 | 33.72813 | -175.64750 | 9.943 | 324.0 |
| 2026-06-26T15:30 | 33.75125 | -175.66540 | 9.891 | 327.1 |
| 2026-06-26T15:40 | 33.73895 | -175.65164 | 6.047 | 136.9 |
| 2026-06-26T15:50 | 33.71099 | -175.64973 | 10.061 | 176.7 |
| 2026-06-26T16:00 | 33.68509 | -175.64807 | 9.314 | 176.9 |
| 2026-06-26T16:10 | 33.65991 | -175.64647 | 9.055 | 176.9 |
| 2026-06-26T16:20 | 33.63492 | -175.64440 | 8.998 | 176.0 |
| 2026-06-26T16:30 | 33.62324 | -175.63930 | 4.467 | 159.9 |
| 2026-06-26T16:40 | 33.62281 | -175.63951 | 0.167 | 202.9 |
| 2026-06-26T16:50 | 33.62279 | -175.63937 | 0.043 | 97.7 |
| 2026-06-26T17:00 | 33.62280 | -175.63938 | 0.004 | 326.9 |
| 2026-06-26T17:10 | 33.62281 | -175.63939 | 0.004 | 313.7 |
| 2026-06-26T17:20 | 33.62280 | -175.63939 | 0.004 | 209.2 |
| 2026-06-26T17:30 | 33.62280 | -175.63939 | 0.001 | 0.0 |
| 2026-06-26T17:40 | 33.62282 | -175.63951 | 0.036 | 278.1 |
| 2026-06-26T17:50 | 33.62283 | -175.63950 | 0.006 | 39.9 |
| 2026-06-26T18:00 | 33.62373 | -175.63944 | 0.323 | 3.3 |
| 2026-06-26T18:10 | 33.62650 | -175.63945 | 0.996 | 359.8 |
| 2026-06-26T18:20 | 33.62911 | -175.63947 | 0.938 | 359.7 |
| 2026-06-26T18:30 | 33.62912 | -175.63954 | 0.022 | 272.9 |
| 2026-06-26T18:40 | 33.62909 | -175.63949 | 0.019 | 124.1 |
| 2026-06-26T18:50 | 33.62910 | -175.63950 | 0.007 | 330.1 |
| 2026-06-26T19:00 | 33.62917 | -175.63948 | 0.026 | 12.1 |
| 2026-06-26T19:10 | 33.62907 | -175.63944 | 0.038 | 161.2 |
| 2026-06-26T19:20 | 33.62911 | -175.63944 | 0.012 | 357.2 |
| 2026-06-26T19:30 | 33.62910 | -175.63947 | 0.011 | 262.2 |
| 2026-06-26T19:40 | 33.62910 | -175.63949 | 0.006 | 255.1 |
| 2026-06-26T19:50 | 33.62911 | -175.63941 | 0.025 | 79.1 |
| 2026-06-26T20:00 | 33.62908 | -175.63944 | 0.014 | 221.8 |
| 2026-06-26T20:10 | 33.62909 | -175.63951 | 0.020 | 275.2 |
| 2026-06-26T20:20 | 33.62907 | -175.63944 | 0.020 | 108.2 |
| 2026-06-26T20:30 | 33.62909 | -175.63946 | 0.009 | 321.5 |
| 2026-06-26T20:40 | 33.62910 | -175.63942 | 0.013 | 80.3 |
| 2026-06-26T20:50 | 33.62908 | -175.63942 | 0.005 | 160.3 |
| 2026-06-26T21:00 | 33.62911 | -175.63950 | 0.026 | 293.4 |
| 2026-06-26T21:10 | 33.62917 | -175.63948 | 0.022 | 14.1 |
| 2026-06-26T21:20 | 33.62916 | -175.63952 | 0.013 | 249.2 |
| 2026-06-26T21:30 | 33.62905 | -175.63949 | 0.041 | 166.3 |
| 2026-06-26T21:40 | 33.62906 | -175.63945 | 0.013 | 64.4 |
| 2026-06-26T21:50 | 33.62915 | -175.63951 | 0.037 | 331.3 |
| 2026-06-26T22:00 | 33.62915 | -175.63948 | 0.007 | 104.6 |
| 2026-06-26T22:10 | 33.62911 | -175.63953 | 0.021 | 225.7 |
| 2026-06-26T22:20 | 33.62754 | -175.64032 | 0.612 | 202.9 |
| 2026-06-26T22:30 | 33.62277 | -175.64301 | 1.893 | 205.2 |
| 2026-06-26T22:40 | 33.62278 | -175.64299 | 0.008 | 65.9 |
| 2026-06-26T22:50 | 33.62286 | -175.64305 | 0.035 | 326.4 |
| 2026-06-26T23:00 | 33.62287 | -175.64312 | 0.022 | 281.4 |
| 2026-06-26T23:10 | 33.62290 | -175.64301 | 0.035 | 72.7 |
| 2026-06-26T23:20 | 33.62286 | -175.64311 | 0.034 | 241.5 |
| 2026-06-26T23:30 | 33.62289 | -175.64302 | 0.028 | 68.0 |
| 2026-06-26T23:40 | 33.62290 | -175.64305 | 0.009 | 296.0 |
| 2026-06-26T23:50 | 33.62285 | -175.64305 | 0.017 | 183.1 |
| 2026-06-27T00:00 | 33.62415 | -175.64292 | 0.469 | 4.7 |
| 2026-06-27T00:10 | 33.62693 | -175.64275 | 0.999 | 3.1 |
| 2026-06-27T00:20 | 33.62810 | -175.64272 | 0.418 | 0.9 |
| 2026-06-27T00:30 | 33.62808 | -175.64276 | 0.013 | 249.7 |
| 2026-06-27T00:40 | 33.62805 | -175.64271 | 0.022 | 123.3 |
| 2026-06-27T00:50 | 33.62809 | -175.64273 | 0.018 | 331.7 |
| 2026-06-27T01:00 | 33.62813 | -175.64275 | 0.014 | 333.4 |
| 2026-06-27T01:10 | 33.62814 | -175.64275 | 0.003 | 15.6 |
| 2026-06-27T01:20 | 33.62812 | -175.64270 | 0.018 | 108.5 |
| 2026-06-27T01:30 | 33.62810 | -175.64275 | 0.018 | 249.3 |
| 2026-06-27T01:40 | 33.62804 | -175.64268 | 0.032 | 139.2 |
| 2026-06-27T01:50 | 33.62807 | -175.64263 | 0.019 | 52.3 |
| 2026-06-27T02:00 | 33.62814 | -175.64270 | 0.032 | 320.5 |
| 2026-06-27T02:10 | 33.62812 | -175.64271 | 0.006 | 204.0 |
| 2026-06-27T02:20 | 33.62811 | -175.64275 | 0.012 | 246.2 |
| 2026-06-27T02:30 | 33.62809 | -175.64273 | 0.007 | 145.4 |
| 2026-06-27T02:40 | 33.63399 | -175.65621 | 4.571 | 297.6 |
| 2026-06-27T02:50 | 33.64312 | -175.66476 | 4.165 | 321.9 |
| 2026-06-27T03:00 | 33.64226 | -175.66575 | 0.429 | 223.7 |
| 2026-06-27T03:10 | 33.64224 | -175.66569 | 0.019 | 111.7 |
| 2026-06-27T03:20 | 33.64226 | -175.66566 | 0.010 | 54.0 |
| 2026-06-27T03:30 | 33.64228 | -175.66571 | 0.017 | 295.6 |
| 2026-06-27T03:40 | 33.64232 | -175.66575 | 0.019 | 321.5 |
| 2026-06-27T03:50 | 33.64232 | -175.66577 | 0.006 | 281.3 |
| 2026-06-27T04:00 | 33.64229 | -175.66572 | 0.019 | 128.0 |
| 2026-06-27T04:10 | 33.64234 | -175.66578 | 0.025 | 315.4 |
| 2026-06-27T04:20 | 33.64377 | -175.66579 | 0.512 | 359.6 |
| 2026-06-27T04:30 | 33.64657 | -175.66571 | 1.006 | 1.5 |
| 2026-06-27T04:40 | 33.64684 | -175.66567 | 0.100 | 6.2 |
| 2026-06-27T04:50 | 33.64681 | -175.66568 | 0.013 | 189.0 |
| 2026-06-27T05:00 | 33.64683 | -175.66576 | 0.026 | 288.0 |
| 2026-06-27T05:10 | 33.64684 | -175.66563 | 0.039 | 84.2 |
| 2026-06-27T05:20 | 33.64681 | -175.66573 | 0.030 | 251.4 |
| 2026-06-27T05:30 | 33.64685 | -175.66575 | 0.015 | 328.9 |
| 2026-06-27T05:40 | 33.64686 | -175.66577 | 0.007 | 300.9 |
| 2026-06-27T05:50 | 33.64684 | -175.66567 | 0.032 | 101.2 |
| 2026-06-27T06:00 | 33.64688 | -175.66574 | 0.026 | 307.3 |
| 2026-06-27T06:10 | 33.64684 | -175.66560 | 0.043 | 110.8 |
| 2026-06-27T06:20 | 33.64681 | -175.66564 | 0.016 | 228.1 |
| 2026-06-27T06:30 | 33.64675 | -175.66592 | 0.087 | 255.6 |
| 2026-06-27T06:40 | 33.65666 | -175.66713 | 3.578 | 354.2 |
| 2026-06-27T06:50 | 33.67214 | -175.67947 | 6.680 | 326.3 |
| 2026-06-27T07:00 | 33.68061 | -175.71173 | 10.154 | 287.5 |
| 2026-06-27T07:10 | 33.68872 | -175.74383 | 10.070 | 286.8 |
| 2026-06-27T07:20 | 33.69672 | -175.77561 | 9.962 | 286.8 |
| 2026-06-27T07:30 | 33.70478 | -175.80764 | 10.041 | 286.8 |
| 2026-06-27T07:40 | 33.71284 | -175.83965 | 10.036 | 286.8 |
| 2026-06-27T07:50 | 33.72094 | -175.87197 | 10.128 | 286.7 |
| 2026-06-27T08:00 | 33.72919 | -175.90494 | 10.329 | 286.7 |
| 2026-06-27T08:10 | 33.73734 | -175.93755 | 10.212 | 286.7 |
| 2026-06-27T08:20 | 33.74559 | -175.97026 | 10.253 | 286.8 |
| 2026-06-27T08:30 | 33.75382 | -176.00293 | 10.239 | 286.8 |
| 2026-06-27T08:40 | 33.76196 | -176.03523 | 10.120 | 286.8 |
| 2026-06-27T08:50 | 33.76998 | -176.06692 | 9.934 | 286.9 |
| 2026-06-27T09:00 | 33.77720 | -176.09914 | 10.005 | 285.0 |
| 2026-06-27T09:10 | 33.78082 | -176.13222 | 10.004 | 277.5 |
| 2026-06-27T09:20 | 33.78419 | -176.16503 | 9.913 | 277.0 |
| 2026-06-27T09:30 | 33.78771 | -176.19762 | 9.856 | 277.4 |
| 2026-06-27T09:40 | 33.79121 | -176.23068 | 9.993 | 277.2 |
| 2026-06-27T09:50 | 33.79480 | -176.26473 | 10.291 | 277.2 |
| 2026-06-27T10:00 | 33.79842 | -176.29851 | 10.213 | 277.3 |
| 2026-06-27T10:10 | 33.80195 | -176.33226 | 10.199 | 277.1 |
| 2026-06-27T10:20 | 33.80563 | -176.36622 | 10.267 | 277.4 |
| 2026-06-27T10:30 | 33.80905 | -176.39993 | 10.181 | 276.9 |
| 2026-06-27T10:40 | 33.81266 | -176.43364 | 10.190 | 277.3 |
| 2026-06-27T10:50 | 33.81607 | -176.46528 | 9.563 | 277.4 |
| 2026-06-27T11:00 | 33.81943 | -176.49720 | 9.645 | 277.2 |
| 2026-06-27T11:10 | 33.83602 | -176.51871 | 8.782 | 312.8 |
| 2026-06-27T11:20 | 33.86013 | -176.53426 | 9.831 | 331.7 |
| 2026-06-27T11:30 | 33.88412 | -176.54981 | 9.797 | 331.6 |
| 2026-06-27T11:40 | 33.90764 | -176.56492 | 9.581 | 331.8 |
| 2026-06-27T11:50 | 33.93098 | -176.57979 | 9.493 | 332.0 |
| 2026-06-27T12:00 | 33.95506 | -176.59543 | 9.833 | 331.6 |
| 2026-06-27T12:10 | 33.97990 | -176.61134 | 10.115 | 331.9 |
| 2026-06-27T12:20 | 34.00496 | -176.62751 | 10.218 | 331.8 |
| 2026-06-27T12:30 | 34.02996 | -176.64361 | 10.187 | 331.8 |
| 2026-06-27T12:40 | 34.05380 | -176.65869 | 9.681 | 332.2 |
| 2026-06-27T12:50 | 34.06396 | -176.68828 | 9.568 | 292.4 |
| 2026-06-27T13:00 | 34.06912 | -176.72036 | 9.767 | 280.9 |
| 2026-06-27T13:10 | 34.06920 | -176.75494 | 10.336 | 270.2 |
| 2026-06-27T13:20 | 34.06925 | -176.78848 | 10.023 | 270.1 |
| 2026-06-27T13:30 | 34.06911 | -176.82171 | 9.934 | 269.7 |
| 2026-06-27T13:40 | 34.06251 | -176.84796 | 8.197 | 253.2 |
| 2026-06-27T13:50 | 34.05974 | -176.81832 | 8.915 | 96.4 |
| 2026-06-27T14:00 | 34.05976 | -176.78559 | 9.785 | 90.0 |
| 2026-06-27T14:10 | 34.05913 | -176.76712 | 5.527 | 92.3 |
| 2026-06-27T14:20 | 34.05912 | -176.76698 | 0.043 | 97.2 |
| 2026-06-27T14:30 | 34.05909 | -176.76696 | 0.013 | 151.8 |
| 2026-06-27T14:40 | 34.05913 | -176.76689 | 0.026 | 53.2 |
| 2026-06-27T14:50 | 34.05913 | -176.76697 | 0.025 | 270.8 |
| 2026-06-27T15:00 | 34.05914 | -176.76693 | 0.013 | 72.9 |
| 2026-06-27T15:10 | 34.05910 | -176.76692 | 0.014 | 166.4 |
| 2026-06-27T15:20 | 34.05904 | -176.76691 | 0.022 | 179.2 |
| 2026-06-27T15:30 | 34.06048 | -176.76547 | 0.672 | 39.9 |
| 2026-06-27T15:40 | 34.06261 | -176.76335 | 0.994 | 39.6 |
| 2026-06-27T15:50 | 34.06395 | -176.76205 | 0.621 | 39.0 |
| 2026-06-27T16:00 | 34.06397 | -176.76200 | 0.016 | 70.2 |
| 2026-06-27T16:10 | 34.06395 | -176.76196 | 0.012 | 118.1 |
| 2026-06-27T16:20 | 34.06396 | -176.76196 | 0.002 | 7.9 |
| 2026-06-27T16:30 | 34.06402 | -176.76198 | 0.022 | 343.5 |
| 2026-06-27T16:40 | 34.06402 | -176.76199 | 0.004 | 294.8 |
| 2026-06-27T16:50 | 34.06399 | -176.76200 | 0.011 | 195.5 |
| 2026-06-27T17:00 | 34.06399 | -176.76210 | 0.028 | 272.2 |
| 2026-06-27T17:10 | 34.06402 | -176.76208 | 0.012 | 29.9 |
| 2026-06-27T17:20 | 34.06396 | -176.76204 | 0.025 | 152.7 |
| 2026-06-27T17:30 | 34.06404 | -176.76206 | 0.029 | 346.4 |
| 2026-06-27T17:40 | 34.06403 | -176.76197 | 0.029 | 95.7 |
| 2026-06-27T17:50 | 34.06724 | -176.75983 | 1.319 | 29.0 |
| 2026-06-27T18:00 | 34.07167 | -176.78909 | 8.891 | 280.3 |
| 2026-06-27T18:10 | 34.07636 | -176.82151 | 9.833 | 279.9 |
| 2026-06-27T18:20 | 34.08035 | -176.84832 | 8.141 | 280.1 |
| 2026-06-27T18:30 | 34.08485 | -176.87858 | 9.187 | 280.1 |
| 2026-06-27T18:40 | 34.08951 | -176.91083 | 9.781 | 279.9 |
| 2026-06-27T18:50 | 34.09433 | -176.94346 | 9.901 | 280.1 |
| 2026-06-27T19:00 | 34.09909 | -176.97584 | 9.828 | 280.0 |
| 2026-06-27T19:10 | 34.10390 | -177.00856 | 9.927 | 280.0 |
| 2026-06-27T19:20 | 34.10879 | -177.04193 | 10.123 | 280.0 |
| 2026-06-27T19:30 | 34.10466 | -177.07370 | 9.607 | 261.1 |
| 2026-06-27T19:40 | 34.09006 | -177.10299 | 10.202 | 239.1 |
| 2026-06-27T19:50 | 34.07546 | -177.13226 | 10.200 | 239.1 |
| 2026-06-27T20:00 | 34.06099 | -177.16116 | 10.079 | 239.0 |
| 2026-06-27T20:10 | 34.04668 | -177.18991 | 10.016 | 239.1 |
| 2026-06-27T20:20 | 34.03228 | -177.21812 | 9.896 | 238.5 |
| 2026-06-27T20:30 | 34.01687 | -177.24472 | 9.691 | 235.2 |
| 2026-06-27T20:40 | 34.01112 | -177.26266 | 5.749 | 248.9 |
| 2026-06-27T20:50 | 34.01437 | -177.25895 | 1.614 | 43.5 |
| 2026-06-27T21:00 | 34.01425 | -177.25994 | 0.302 | 261.6 |
| 2026-06-27T21:10 | 34.01417 | -177.26080 | 0.258 | 263.7 |
| 2026-06-27T21:20 | 34.01416 | -177.26080 | 0.006 | 177.0 |
| 2026-06-27T21:30 | 34.01420 | -177.26087 | 0.026 | 306.0 |
| 2026-06-27T21:40 | 34.01419 | -177.26085 | 0.007 | 105.3 |
| 2026-06-27T21:50 | 34.01413 | -177.26087 | 0.022 | 193.3 |
| 2026-06-27T22:00 | 34.01412 | -177.26086 | 0.006 | 161.6 |
| 2026-06-27T22:10 | 34.01417 | -177.26081 | 0.024 | 44.3 |
| 2026-06-27T22:20 | 34.01416 | -177.26086 | 0.015 | 260.6 |
| 2026-06-27T22:30 | 34.01532 | -177.26107 | 0.421 | 351.3 |
| 2026-06-27T22:40 | 34.01786 | -177.26155 | 0.924 | 351.1 |
| 2026-06-27T22:50 | 34.01786 | -177.26149 | 0.018 | 87.8 |
| 2026-06-27T23:00 | 34.01790 | -177.26148 | 0.013 | 5.4 |
| 2026-06-27T23:10 | 34.01787 | -177.26150 | 0.010 | 209.0 |
| 2026-06-27T23:20 | 34.01784 | -177.26154 | 0.016 | 223.1 |
| 2026-06-27T23:30 | 34.01789 | -177.26157 | 0.022 | 333.4 |
| 2026-06-27T23:40 | 34.01788 | -177.26148 | 0.025 | 98.2 |
| 2026-06-27T23:50 | 34.01787 | -177.26149 | 0.006 | 201.2 |
| 2026-06-28T00:00 | 34.01787 | -177.26153 | 0.011 | 264.3 |
| 2026-06-28T00:10 | 34.01789 | -177.26138 | 0.045 | 78.8 |
| 2026-06-28T00:20 | 34.01819 | -177.26122 | 0.119 | 24.0 |
| 2026-06-28T00:30 | 34.01890 | -177.26218 | 0.384 | 311.7 |
| 2026-06-28T00:40 | 34.01792 | -177.26154 | 0.400 | 151.6 |
| 2026-06-28T00:50 | 34.01909 | -177.26206 | 0.448 | 339.6 |
| 2026-06-28T01:00 | 34.03087 | -177.28703 | 8.582 | 299.5 |
| 2026-06-28T01:10 | 34.04482 | -177.31680 | 10.213 | 299.4 |
| 2026-06-28T01:20 | 34.05910 | -177.34608 | 10.146 | 300.4 |
| 2026-06-28T01:30 | 34.07378 | -177.37594 | 10.367 | 300.6 |
| 2026-06-28T01:40 | 34.08850 | -177.40609 | 10.446 | 300.4 |
| 2026-06-28T01:50 | 34.08944 | -177.44090 | 10.409 | 271.9 |
| 2026-06-28T02:00 | 34.09529 | -177.46697 | 8.067 | 285.1 |
| 2026-06-28T02:10 | 34.09602 | -177.46670 | 0.273 | 17.1 |
| 2026-06-28T02:20 | 34.09603 | -177.46680 | 0.029 | 276.4 |
| 2026-06-28T02:30 | 34.09604 | -177.46679 | 0.005 | 22.6 |
| 2026-06-28T02:40 | 34.09610 | -177.46681 | 0.022 | 342.0 |
| 2026-06-28T02:50 | 34.09607 | -177.46681 | 0.012 | 184.5 |
| 2026-06-28T03:00 | 34.09610 | -177.46679 | 0.014 | 34.9 |
| 2026-06-28T03:10 | 34.09607 | -177.46672 | 0.022 | 116.2 |
| 2026-06-28T03:20 | 34.09605 | -177.46675 | 0.011 | 236.6 |
| 2026-06-28T03:30 | 34.09622 | -177.46679 | 0.062 | 351.1 |
| 2026-06-28T03:40 | 34.09871 | -177.46819 | 0.986 | 334.8 |
| 2026-06-28T03:50 | 34.10009 | -177.46906 | 0.558 | 332.4 |
| 2026-06-28T04:00 | 34.10016 | -177.46900 | 0.033 | 33.4 |
| 2026-06-28T04:10 | 34.10016 | -177.46892 | 0.023 | 97.1 |
| 2026-06-28T04:20 | 34.10008 | -177.46896 | 0.029 | 203.7 |
| 2026-06-28T04:30 | 34.10014 | -177.46903 | 0.029 | 312.8 |
| 2026-06-28T04:40 | 34.10015 | -177.46902 | 0.006 | 8.3 |
| 2026-06-28T04:50 | 34.10015 | -177.46904 | 0.005 | 240.7 |
| 2026-06-28T05:00 | 34.10009 | -177.46901 | 0.022 | 154.9 |
| 2026-06-28T05:10 | 34.10015 | -177.46903 | 0.021 | 338.2 |
| 2026-06-28T05:20 | 34.10012 | -177.46903 | 0.011 | 170.2 |
| 2026-06-28T05:30 | 34.10013 | -177.46904 | 0.005 | 334.1 |
| 2026-06-28T05:40 | 34.10015 | -177.46898 | 0.019 | 66.8 |
| 2026-06-28T05:50 | 34.10010 | -177.46897 | 0.018 | 171.5 |
| 2026-06-28T06:00 | 34.09911 | -177.46740 | 0.588 | 127.1 |
| 2026-06-28T06:10 | 34.09081 | -177.48322 | 5.590 | 237.8 |
| 2026-06-28T06:20 | 34.09372 | -177.48699 | 1.535 | 312.8 |
| 2026-06-28T06:30 | 34.09351 | -177.48723 | 0.103 | 224.9 |
| 2026-06-28T06:40 | 34.09354 | -177.48735 | 0.036 | 286.4 |
| 2026-06-28T06:50 | 34.09348 | -177.48732 | 0.024 | 159.4 |
| 2026-06-28T07:00 | 34.09345 | -177.48728 | 0.015 | 131.5 |
| 2026-06-28T07:10 | 34.09346 | -177.48725 | 0.011 | 77.2 |
| 2026-06-28T07:20 | 34.09350 | -177.48732 | 0.028 | 302.9 |
| 2026-06-28T07:30 | 34.09355 | -177.48735 | 0.018 | 339.1 |
| 2026-06-28T07:40 | 34.09351 | -177.48728 | 0.024 | 128.3 |
| 2026-06-28T07:50 | 34.09497 | -177.48808 | 0.578 | 335.7 |
| 2026-06-28T08:00 | 34.09635 | -177.48889 | 0.549 | 333.9 |
| 2026-06-28T08:10 | 34.09633 | -177.48880 | 0.025 | 104.0 |
| 2026-06-28T08:20 | 34.09634 | -177.48885 | 0.014 | 288.1 |
| 2026-06-28T08:30 | 34.09636 | -177.48878 | 0.020 | 77.5 |
| 2026-06-28T08:40 | 34.09634 | -177.48892 | 0.042 | 264.6 |
| 2026-06-28T08:50 | 34.09640 | -177.48881 | 0.040 | 61.2 |
| 2026-06-28T09:00 | 34.09634 | -177.48878 | 0.023 | 158.8 |
| 2026-06-28T09:10 | 34.09641 | -177.48888 | 0.040 | 308.0 |
| 2026-06-28T09:20 | 34.09639 | -177.48886 | 0.009 | 129.3 |
| 2026-06-28T09:30 | 34.09637 | -177.48890 | 0.015 | 237.8 |
| 2026-06-28T09:40 | 34.09635 | -177.48890 | 0.007 | 157.4 |
| 2026-06-28T09:50 | 34.09638 | -177.48887 | 0.014 | 34.9 |
| 2026-06-28T10:00 | 34.09818 | -177.48887 | 0.647 | 359.9 |
| 2026-06-28T10:10 | 34.10616 | -177.51388 | 8.001 | 291.0 |
| 2026-06-28T10:20 | 34.11392 | -177.54616 | 10.039 | 286.1 |
| 2026-06-28T10:30 | 34.12187 | -177.57914 | 10.258 | 286.2 |
| 2026-06-28T10:40 | 34.12998 | -177.61129 | 10.034 | 286.9 |
| 2026-06-28T10:50 | 34.13861 | -177.64203 | 9.690 | 288.7 |
| 2026-06-28T11:00 | 34.14776 | -177.67393 | 10.080 | 289.1 |
| 2026-06-28T11:10 | 34.15616 | -177.70589 | 10.007 | 287.6 |
| 2026-06-28T11:20 | 34.16408 | -177.73739 | 9.827 | 286.8 |
| 2026-06-28T11:30 | 34.17221 | -177.76922 | 9.941 | 287.1 |
| 2026-06-28T11:40 | 34.18046 | -177.80086 | 9.900 | 287.4 |
| 2026-06-28T11:50 | 34.18792 | -177.83192 | 9.650 | 286.1 |
| 2026-06-28T12:00 | 34.19428 | -177.83632 | 2.637 | 330.1 |
| 2026-06-28T12:10 | 34.19248 | -177.83801 | 0.820 | 217.8 |
| 2026-06-28T12:20 | 34.19161 | -177.83855 | 0.352 | 207.4 |
| 2026-06-28T12:30 | 34.19158 | -177.83852 | 0.015 | 145.6 |
| 2026-06-28T12:40 | 34.19165 | -177.83852 | 0.027 | 359.4 |
| 2026-06-28T12:50 | 34.19162 | -177.83859 | 0.022 | 245.3 |
| 2026-06-28T13:00 | 34.19395 | -177.83805 | 0.852 | 10.9 |
| 2026-06-28T13:10 | 34.19640 | -177.83756 | 0.893 | 9.5 |
| 2026-06-28T13:20 | 34.19641 | -177.83762 | 0.020 | 271.0 |
| 2026-06-28T13:30 | 34.19637 | -177.83750 | 0.038 | 109.3 |
| 2026-06-28T13:40 | 34.19642 | -177.83762 | 0.040 | 298.8 |
| 2026-06-28T13:50 | 34.19644 | -177.83751 | 0.033 | 78.7 |
| 2026-06-28T14:00 | 34.19646 | -177.83758 | 0.021 | 288.6 |
| 2026-06-28T14:10 | 34.19643 | -177.83760 | 0.011 | 203.3 |
| 2026-06-28T14:20 | 34.19640 | -177.83749 | 0.036 | 111.3 |
| 2026-06-28T14:30 | 34.19641 | -177.83757 | 0.026 | 278.1 |
| 2026-06-28T14:40 | 34.19752 | -177.83743 | 0.400 | 6.2 |
| 2026-06-28T14:50 | 34.18340 | -177.84760 | 5.910 | 210.9 |
| 2026-06-28T15:00 | 34.15611 | -177.85972 | 10.448 | 200.3 |
| 2026-06-28T15:10 | 34.12858 | -177.87181 | 10.528 | 200.1 |
| 2026-06-28T15:20 | 34.10142 | -177.88361 | 10.372 | 199.9 |
| 2026-06-28T15:30 | 34.09382 | -177.90832 | 7.871 | 249.7 |
| 2026-06-28T15:40 | 34.09923 | -177.94144 | 10.084 | 281.1 |
| 2026-06-28T15:50 | 34.10471 | -177.97525 | 10.291 | 281.0 |
| 2026-06-28T16:00 | 34.11050 | -178.00925 | 10.369 | 281.6 |
| 2026-06-28T16:10 | 34.11636 | -178.04402 | 10.600 | 281.5 |
| 2026-06-28T16:20 | 34.12209 | -178.07823 | 10.425 | 281.4 |
| 2026-06-28T16:30 | 34.12786 | -178.11223 | 10.366 | 281.6 |
| 2026-06-28T16:40 | 34.13344 | -178.14588 | 10.248 | 281.3 |
| 2026-06-28T16:50 | 34.13927 | -178.17995 | 10.388 | 281.6 |
| 2026-06-28T17:00 | 34.14496 | -178.21405 | 10.386 | 281.4 |
| 2026-06-28T17:10 | 34.15066 | -178.24784 | 10.296 | 281.5 |
| 2026-06-28T17:20 | 34.15649 | -178.28192 | 10.390 | 281.6 |
| 2026-06-28T17:30 | 34.16211 | -178.31564 | 10.270 | 281.4 |
| 2026-06-28T17:40 | 34.16791 | -178.34972 | 10.385 | 281.6 |
| 2026-06-28T17:50 | 34.17372 | -178.38433 | 10.541 | 281.4 |
| 2026-06-28T18:00 | 34.17942 | -178.41876 | 10.481 | 281.3 |
| 2026-06-28T18:10 | 34.18541 | -178.45366 | 10.635 | 281.7 |
| 2026-06-28T18:20 | 34.19128 | -178.48921 | 10.821 | 281.3 |
| 2026-06-28T18:30 | 34.19719 | -178.52441 | 10.717 | 281.4 |
| 2026-06-28T18:40 | 34.20322 | -178.55984 | 10.794 | 281.6 |
| 2026-06-28T18:50 | 34.20931 | -178.59570 | 10.922 | 281.6 |
| 2026-06-28T19:00 | 34.21537 | -178.63214 | 11.089 | 281.3 |
| 2026-06-28T19:10 | 34.22150 | -178.66863 | 11.108 | 281.4 |
| 2026-06-28T19:20 | 34.22765 | -178.70497 | 11.065 | 281.5 |
| 2026-06-28T19:30 | 34.23370 | -178.74061 | 10.851 | 281.6 |
| 2026-06-28T19:40 | 34.23956 | -178.77573 | 10.687 | 281.4 |
| 2026-06-28T19:50 | 34.24543 | -178.81065 | 10.628 | 281.5 |
| 2026-06-28T20:00 | 34.25136 | -178.84572 | 10.673 | 281.5 |
| 2026-06-28T20:10 | 34.25714 | -178.88040 | 10.549 | 281.4 |
| 2026-06-28T20:20 | 34.26314 | -178.91562 | 10.724 | 281.6 |
| 2026-06-28T20:30 | 34.26904 | -178.95103 | 10.768 | 281.4 |
| 2026-06-28T20:40 | 34.27486 | -178.98607 | 10.657 | 281.3 |
| 2026-06-28T20:50 | 34.28084 | -179.02105 | 10.648 | 281.6 |
| 2026-06-28T21:00 | 34.28668 | -179.05581 | 10.573 | 281.5 |
| 2026-06-28T21:10 | 34.28810 | -179.09071 | 10.418 | 272.8 |
| 2026-06-28T21:20 | 34.28798 | -179.12579 | 10.459 | 269.8 |
| 2026-06-28T21:30 | 34.28282 | -179.16098 | 10.654 | 260.0 |
| 2026-06-28T21:40 | 34.28083 | -179.19687 | 10.723 | 266.2 |
| 2026-06-28T21:50 | 34.28077 | -179.23280 | 10.713 | 269.9 |
| 2026-06-28T22:00 | 34.28083 | -179.26821 | 10.559 | 270.1 |
| 2026-06-28T22:10 | 34.28079 | -179.30323 | 10.440 | 269.9 |
| 2026-06-28T22:20 | 34.28810 | -179.32449 | 6.860 | 292.5 |
| 2026-06-28T22:30 | 34.28646 | -179.30168 | 6.825 | 94.9 |
| 2026-06-28T22:40 | 34.28818 | -179.28072 | 6.281 | 84.4 |
| 2026-06-28T22:50 | 34.28790 | -179.28085 | 0.106 | 201.6 |
| 2026-06-28T23:00 | 34.28689 | -179.28149 | 0.409 | 207.9 |
| 2026-06-28T23:10 | 34.28621 | -179.28126 | 0.254 | 164.1 |
| 2026-06-28T23:20 | 34.28625 | -179.28124 | 0.015 | 25.2 |
| 2026-06-28T23:30 | 34.28627 | -179.28121 | 0.011 | 43.2 |
| 2026-06-28T23:40 | 34.28622 | -179.28122 | 0.021 | 189.1 |
| 2026-06-28T23:50 | 34.28621 | -179.28125 | 0.010 | 255.2 |
| 2026-06-29T00:00 | 34.28628 | -179.28124 | 0.026 | 11.9 |
| 2026-06-29T00:10 | 34.28671 | -179.28135 | 0.159 | 347.4 |
| 2026-06-29T00:20 | 34.28945 | -179.28180 | 0.995 | 352.2 |
| 2026-06-29T00:30 | 34.29221 | -179.28225 | 0.999 | 352.4 |
| 2026-06-29T00:40 | 34.29297 | -179.28237 | 0.276 | 352.4 |
| 2026-06-29T00:50 | 34.29292 | -179.28235 | 0.021 | 168.5 |
| 2026-06-29T01:00 | 34.29287 | -179.28232 | 0.020 | 145.0 |
| 2026-06-29T01:10 | 34.29284 | -179.28235 | 0.015 | 228.7 |
| 2026-06-29T01:20 | 34.29293 | -179.28230 | 0.034 | 29.9 |
| 2026-06-29T01:30 | 34.29296 | -179.28236 | 0.023 | 298.8 |
| 2026-06-29T01:40 | 34.29259 | -179.28226 | 0.135 | 166.4 |
| 2026-06-29T01:50 | 34.29205 | -179.28218 | 0.198 | 173.5 |
| 2026-06-29T02:00 | 34.29190 | -179.28214 | 0.052 | 166.4 |
| 2026-06-29T02:10 | 34.29186 | -179.28214 | 0.014 | 176.4 |
| 2026-06-29T02:20 | 34.29187 | -179.28219 | 0.016 | 280.3 |
| 2026-06-29T02:30 | 34.29192 | -179.28210 | 0.032 | 58.9 |
| 2026-06-29T02:40 | 34.29188 | -179.28211 | 0.014 | 194.3 |
| 2026-06-29T02:50 | 34.29198 | -179.28209 | 0.036 | 9.1 |
| 2026-06-29T03:00 | 34.29194 | -179.28205 | 0.018 | 136.0 |
| 2026-06-29T03:10 | 34.29187 | -179.28212 | 0.031 | 218.8 |
| 2026-06-29T03:20 | 34.29192 | -179.28211 | 0.019 | 10.6 |
| 2026-06-29T03:30 | 34.29187 | -179.28206 | 0.023 | 140.9 |
| 2026-06-29T03:40 | 34.29262 | -179.27964 | 0.769 | 69.7 |
| 2026-06-29T03:50 | 34.31300 | -179.26896 | 7.985 | 23.5 |
| 2026-06-29T04:00 | 34.33679 | -179.25401 | 9.634 | 27.5 |
| 2026-06-29T04:10 | 34.33746 | -179.24754 | 1.944 | 82.8 |
| 2026-06-29T04:20 | 34.33739 | -179.24753 | 0.026 | 176.7 |
| 2026-06-29T04:30 | 34.33746 | -179.24756 | 0.025 | 342.2 |
| 2026-06-29T04:40 | 34.33749 | -179.24749 | 0.024 | 56.4 |
| 2026-06-29T04:50 | 34.33753 | -179.24751 | 0.012 | 338.1 |
| 2026-06-29T05:00 | 34.33755 | -179.24753 | 0.011 | 315.4 |
| 2026-06-29T05:10 | 34.33760 | -179.24753 | 0.018 | 0.0 |
| 2026-06-29T05:20 | 34.33750 | -179.24754 | 0.034 | 183.0 |
| 2026-06-29T05:30 | 34.33778 | -179.24770 | 0.110 | 334.3 |
| 2026-06-29T05:40 | 34.34041 | -179.24880 | 1.002 | 340.9 |
| 2026-06-29T05:50 | 34.34233 | -179.24958 | 0.725 | 341.2 |
| 2026-06-29T06:00 | 34.34242 | -179.24956 | 0.036 | 13.9 |
| 2026-06-29T06:10 | 34.34242 | -179.24958 | 0.007 | 249.8 |
| 2026-06-29T06:20 | 34.34241 | -179.24957 | 0.003 | 102.4 |
| 2026-06-29T06:30 | 34.34234 | -179.24957 | 0.025 | 180.7 |
| 2026-06-29T06:40 | 34.34234 | -179.24957 | 0.001 | 270.0 |
| 2026-06-29T06:50 | 34.34242 | -179.24955 | 0.029 | 11.4 |
| 2026-06-29T07:00 | 34.34238 | -179.24957 | 0.015 | 199.4 |
| 2026-06-29T07:10 | 34.34234 | -179.24957 | 0.014 | 181.2 |
| 2026-06-29T07:20 | 34.34235 | -179.24959 | 0.006 | 308.0 |
| 2026-06-29T07:30 | 34.34241 | -179.24961 | 0.020 | 338.3 |
| 2026-06-29T07:40 | 34.34238 | -179.24956 | 0.018 | 125.5 |
| 2026-06-29T07:50 | 34.34235 | -179.24957 | 0.010 | 191.7 |
| 2026-06-29T08:00 | 34.35020 | -179.25469 | 3.206 | 331.6 |
| 2026-06-29T08:10 | 34.36921 | -179.28023 | 10.224 | 311.9 |
| 2026-06-29T08:20 | 34.37893 | -179.29978 | 6.789 | 300.9 |
| 2026-06-29T08:30 | 34.37501 | -179.29590 | 1.821 | 140.6 |
| 2026-06-29T08:40 | 34.37500 | -179.29542 | 0.143 | 92.6 |
| 2026-06-29T08:50 | 34.37506 | -179.29538 | 0.025 | 28.5 |
| 2026-06-29T09:00 | 34.37503 | -179.29537 | 0.011 | 166.5 |
| 2026-06-29T09:10 | 34.37501 | -179.29544 | 0.022 | 252.1 |
| 2026-06-29T09:20 | 34.37496 | -179.29548 | 0.020 | 209.7 |
| 2026-06-29T09:30 | 34.37502 | -179.29544 | 0.025 | 29.5 |
| 2026-06-29T09:40 | 34.37587 | -179.29526 | 0.309 | 9.9 |
| 2026-06-29T09:50 | 34.37797 | -179.29484 | 0.765 | 9.3 |
| 2026-06-29T10:00 | 34.37798 | -179.29481 | 0.012 | 62.7 |
| 2026-06-29T10:10 | 34.37794 | -179.29483 | 0.017 | 206.6 |
| 2026-06-29T10:20 | 34.37793 | -179.29486 | 0.010 | 239.8 |
| 2026-06-29T10:30 | 34.37794 | -179.29490 | 0.012 | 293.0 |
| 2026-06-29T10:40 | 34.37792 | -179.29488 | 0.007 | 136.5 |
| 2026-06-29T10:50 | 34.37796 | -179.29489 | 0.013 | 350.8 |
| 2026-06-29T11:00 | 34.37798 | -179.29486 | 0.010 | 44.9 |
| 2026-06-29T11:10 | 34.37791 | -179.29482 | 0.031 | 151.6 |
| 2026-06-29T11:20 | 34.37802 | -179.29485 | 0.041 | 344.1 |
| 2026-06-29T11:30 | 34.37795 | -179.29481 | 0.027 | 154.6 |
| 2026-06-29T11:40 | 34.37792 | -179.29485 | 0.013 | 222.7 |
| 2026-06-29T11:50 | 34.36901 | -179.29639 | 3.234 | 188.2 |
| 2026-06-29T12:00 | 34.37339 | -179.32800 | 9.546 | 279.5 |
| 2026-06-29T12:10 | 34.37816 | -179.36109 | 10.002 | 279.9 |
| 2026-06-29T12:20 | 34.38309 | -179.39435 | 10.062 | 280.1 |
| 2026-06-29T12:30 | 34.38799 | -179.42779 | 10.113 | 280.0 |
| 2026-06-29T12:40 | 34.39268 | -179.46057 | 9.903 | 279.8 |
| 2026-06-29T12:50 | 34.39756 | -179.49381 | 10.051 | 280.1 |
| 2026-06-29T13:00 | 34.40259 | -179.52800 | 10.339 | 280.1 |
| 2026-06-29T13:10 | 34.40769 | -179.56229 | 10.373 | 280.2 |
| 2026-06-29T13:20 | 34.41611 | -179.58152 | 6.473 | 297.9 |
| 2026-06-29T13:30 | 34.42446 | -179.55815 | 7.575 | 66.7 |
| 2026-06-29T13:40 | 34.43347 | -179.52970 | 9.064 | 69.1 |
| 2026-06-29T13:50 | 34.44422 | -179.50004 | 9.636 | 66.3 |
| 2026-06-29T14:00 | 34.44028 | -179.49908 | 1.446 | 168.6 |
| 2026-06-29T14:10 | 34.44121 | -179.50014 | 0.460 | 316.5 |
| 2026-06-29T14:20 | 34.44164 | -179.49796 | 0.668 | 76.5 |
| 2026-06-29T14:30 | 34.44183 | -179.49688 | 0.329 | 78.0 |
| 2026-06-29T14:40 | 34.44181 | -179.49686 | 0.010 | 145.4 |
| 2026-06-29T14:50 | 34.44194 | -179.49678 | 0.054 | 24.4 |
| 2026-06-29T15:00 | 34.43999 | -179.49590 | 0.747 | 159.5 |
| 2026-06-29T15:10 | 34.43738 | -179.49473 | 1.001 | 159.5 |
| 2026-06-29T15:20 | 34.43680 | -179.49441 | 0.229 | 155.7 |
| 2026-06-29T15:30 | 34.43679 | -179.49442 | 0.005 | 190.8 |
| 2026-06-29T15:40 | 34.43685 | -179.49451 | 0.036 | 305.1 |
| 2026-06-29T15:50 | 34.43734 | -179.49433 | 0.186 | 17.5 |
| 2026-06-29T16:00 | 34.43884 | -179.49484 | 0.559 | 344.0 |
| 2026-06-29T16:10 | 34.43884 | -179.49496 | 0.036 | 268.9 |
| 2026-06-29T16:20 | 34.43889 | -179.49501 | 0.023 | 320.4 |
| 2026-06-29T16:30 | 34.43890 | -179.49496 | 0.016 | 74.2 |
| 2026-06-29T16:40 | 34.43890 | -179.49496 | 0.002 | 28.9 |
| 2026-06-29T16:50 | 34.43886 | -179.49498 | 0.016 | 208.3 |
| 2026-06-29T17:00 | 34.43885 | -179.49494 | 0.013 | 109.5 |
| 2026-06-29T17:10 | 34.43888 | -179.49495 | 0.010 | 349.2 |
| 2026-06-29T17:20 | 34.43884 | -179.49495 | 0.015 | 186.9 |
| 2026-06-29T17:30 | 34.42281 | -179.49596 | 5.766 | 183.0 |
| 2026-06-29T17:40 | 34.39468 | -179.50253 | 10.290 | 191.0 |
| 2026-06-29T17:50 | 34.36655 | -179.50964 | 10.325 | 191.8 |
| 2026-06-29T18:00 | 34.36293 | -179.54019 | 9.191 | 261.9 |
| 2026-06-29T18:10 | 34.36822 | -179.57644 | 10.965 | 280.0 |
| 2026-06-29T18:20 | 34.37332 | -179.61168 | 10.656 | 279.9 |
| 2026-06-29T18:30 | 34.35699 | -179.63251 | 8.537 | 226.6 |
| 2026-06-29T18:40 | 34.33292 | -179.64865 | 9.893 | 209.1 |
| 2026-06-29T18:50 | 34.30844 | -179.66493 | 10.043 | 208.9 |
| 2026-06-29T19:00 | 34.28386 | -179.68119 | 10.072 | 208.8 |
| 2026-06-29T19:10 | 34.25953 | -179.69742 | 9.988 | 209.0 |
| 2026-06-29T19:20 | 34.23499 | -179.71375 | 10.071 | 208.9 |
| 2026-06-29T19:30 | 34.21082 | -179.72974 | 9.905 | 208.8 |
| 2026-06-29T19:40 | 34.18640 | -179.74588 | 10.009 | 208.8 |
| 2026-06-29T19:50 | 34.16172 | -179.76221 | 10.117 | 208.8 |
| 2026-06-29T20:00 | 34.13693 | -179.77870 | 10.174 | 208.9 |
| 2026-06-29T20:10 | 34.11214 | -179.79504 | 10.155 | 208.7 |
| 2026-06-29T20:20 | 34.08751 | -179.81131 | 10.093 | 208.8 |
| 2026-06-29T20:30 | 34.06249 | -179.82791 | 10.264 | 208.9 |
| 2026-06-29T20:40 | 34.03755 | -179.84452 | 10.242 | 209.0 |
| 2026-06-29T20:50 | 34.01241 | -179.86111 | 10.303 | 208.8 |
| 2026-06-29T21:00 | 34.00031 | -179.88962 | 9.573 | 243.0 |
| 2026-06-29T21:10 | 34.00005 | -179.92515 | 10.628 | 269.5 |
| 2026-06-29T21:20 | 34.00000 | -179.96007 | 10.445 | 269.9 |
| 2026-06-29T21:30 | 33.99992 | -179.99495 | 10.436 | 269.8 |
| 2026-06-29T21:40 | 34.00008 | 179.96968 | 10.579 | 270.3 |
| 2026-06-29T21:50 | 34.00005 | 179.93467 | 10.473 | 269.9 |
| 2026-06-29T22:00 | 33.99537 | 179.90250 | 9.769 | 260.1 |
| 2026-06-29T22:10 | 33.97142 | 179.88595 | 9.928 | 209.9 |
| 2026-06-29T22:20 | 33.94643 | 179.87070 | 10.068 | 206.9 |
| 2026-06-29T22:30 | 33.92177 | 179.85557 | 9.948 | 207.1 |
| 2026-06-29T22:40 | 33.89722 | 179.84076 | 9.871 | 206.7 |
| 2026-06-29T22:50 | 33.87252 | 179.82566 | 9.956 | 207.0 |
| 2026-06-29T23:00 | 33.84729 | 179.81038 | 10.153 | 206.8 |
| 2026-06-29T23:10 | 33.82217 | 179.79509 | 10.120 | 206.9 |
| 2026-06-29T23:20 | 33.79677 | 179.77975 | 10.215 | 206.8 |
| 2026-06-29T23:30 | 33.77117 | 179.76418 | 10.311 | 206.9 |
| 2026-06-29T23:40 | 33.74553 | 179.74864 | 10.325 | 206.9 |
| 2026-06-29T23:50 | 33.72020 | 179.73338 | 10.181 | 206.7 |
| 2026-06-30T00:00 | 33.69347 | 179.72601 | 9.853 | 193.0 |
| 2026-06-30T00:10 | 33.66568 | 179.72580 | 9.981 | 180.4 |
| 2026-06-30T00:20 | 33.63745 | 179.72574 | 10.138 | 180.1 |
| 2026-06-30T00:30 | 33.60994 | 179.72592 | 9.883 | 179.7 |
| 2026-06-30T00:40 | 33.60413 | 179.74754 | 6.821 | 107.8 |
| 2026-06-30T00:50 | 33.60578 | 179.77326 | 7.754 | 85.6 |
| 2026-06-30T01:00 | 33.60527 | 179.77793 | 1.414 | 97.5 |
| 2026-06-30T01:10 | 33.60529 | 179.77874 | 0.243 | 88.0 |
| 2026-06-30T01:20 | 33.60523 | 179.77889 | 0.052 | 114.4 |
| 2026-06-30T01:30 | 33.60526 | 179.77886 | 0.013 | 306.9 |
| 2026-06-30T01:40 | 33.60529 | 179.77880 | 0.022 | 307.8 |
| 2026-06-30T01:50 | 33.60555 | 179.77701 | 0.546 | 279.7 |
| 2026-06-30T02:00 | 33.60576 | 179.77518 | 0.557 | 277.8 |
| 2026-06-30T02:10 | 33.60582 | 179.77524 | 0.030 | 37.3 |
| 2026-06-30T02:20 | 33.60583 | 179.77522 | 0.005 | 302.5 |
| 2026-06-30T02:30 | 33.60571 | 179.77516 | 0.047 | 204.4 |
| 2026-06-30T02:40 | 33.60575 | 179.77517 | 0.014 | 20.4 |
| 2026-06-30T02:50 | 33.60583 | 179.77513 | 0.032 | 332.9 |
| 2026-06-30T03:00 | 33.60588 | 179.77518 | 0.024 | 46.0 |
| 2026-06-30T03:10 | 33.60578 | 179.77516 | 0.037 | 192.3 |
| 2026-06-30T03:20 | 33.60413 | 179.77858 | 1.185 | 119.8 |
| 2026-06-30T03:30 | 33.58917 | 179.79890 | 8.137 | 131.3 |
| 2026-06-30T03:40 | 33.58607 | 179.80571 | 2.329 | 118.5 |
| 2026-06-30T03:50 | 33.58639 | 179.80551 | 0.130 | 331.5 |
| 2026-06-30T04:00 | 33.58633 | 179.80554 | 0.023 | 157.6 |
| 2026-06-30T04:10 | 33.58632 | 179.80545 | 0.026 | 263.7 |
| 2026-06-30T04:20 | 33.58639 | 179.80556 | 0.041 | 55.5 |
| 2026-06-30T04:30 | 33.58635 | 179.80547 | 0.030 | 242.6 |
| 2026-06-30T04:40 | 33.58646 | 179.80477 | 0.216 | 280.4 |
| 2026-06-30T04:50 | 33.58670 | 179.80145 | 1.000 | 275.1 |
| 2026-06-30T05:00 | 33.58673 | 179.80019 | 0.381 | 271.7 |
| 2026-06-30T05:10 | 33.58680 | 179.80025 | 0.030 | 38.2 |
| 2026-06-30T05:20 | 33.58683 | 179.80018 | 0.025 | 297.6 |
| 2026-06-30T05:30 | 33.58684 | 179.80026 | 0.025 | 81.0 |
| 2026-06-30T05:40 | 33.58681 | 179.80018 | 0.027 | 239.5 |
| 2026-06-30T05:50 | 33.58683 | 179.80026 | 0.024 | 66.5 |
| 2026-06-30T06:00 | 33.58676 | 179.80020 | 0.031 | 216.9 |
| 2026-06-30T06:10 | 33.58685 | 179.80020 | 0.029 | 1.8 |
| 2026-06-30T06:20 | 33.58678 | 179.80026 | 0.030 | 140.5 |
| 2026-06-30T06:30 | 33.58672 | 179.80019 | 0.031 | 222.9 |
| 2026-06-30T06:40 | 33.58686 | 179.80026 | 0.054 | 24.2 |
| 2026-06-30T06:50 | 33.58287 | 179.81947 | 5.947 | 103.9 |
| 2026-06-30T07:00 | 33.57613 | 179.85200 | 10.074 | 103.9 |
| 2026-06-30T07:10 | 33.56898 | 179.88469 | 10.158 | 104.7 |
| 2026-06-30T07:20 | 33.56526 | 179.90161 | 5.259 | 104.7 |
| 2026-06-30T07:30 | 33.56489 | 179.90406 | 0.751 | 100.3 |
| 2026-06-30T07:40 | 33.56489 | 179.90411 | 0.015 | 94.0 |
| 2026-06-30T07:50 | 33.56494 | 179.90407 | 0.024 | 327.1 |
| 2026-06-30T08:00 | 33.56484 | 179.90404 | 0.037 | 192.7 |
| 2026-06-30T08:10 | 33.56483 | 179.90408 | 0.011 | 113.5 |
| 2026-06-30T08:20 | 33.56493 | 179.90401 | 0.041 | 331.2 |
| 2026-06-30T08:30 | 33.56495 | 179.90408 | 0.022 | 69.8 |
| 2026-06-30T08:40 | 33.56490 | 179.90407 | 0.017 | 186.1 |
| 2026-06-30T08:50 | 33.56477 | 179.90300 | 0.325 | 261.4 |
| 2026-06-30T09:00 | 33.56436 | 179.89975 | 0.990 | 261.5 |
| 2026-06-30T09:10 | 33.56441 | 179.89969 | 0.024 | 312.8 |
| 2026-06-30T09:20 | 33.56432 | 179.89965 | 0.034 | 198.7 |
| 2026-06-30T09:30 | 33.56441 | 179.89976 | 0.046 | 42.8 |
| 2026-06-30T09:40 | 33.56438 | 179.89969 | 0.023 | 239.9 |
| 2026-06-30T09:50 | 33.56435 | 179.89971 | 0.012 | 147.6 |
| 2026-06-30T10:00 | 33.56433 | 179.89976 | 0.015 | 111.3 |
| 2026-06-30T10:10 | 33.56442 | 179.89971 | 0.033 | 336.1 |
| 2026-06-30T10:20 | 33.56428 | 179.89969 | 0.051 | 189.9 |
| 2026-06-30T10:30 | 33.56432 | 179.89970 | 0.016 | 9.9 |
| 2026-06-30T10:40 | 33.56440 | 179.89974 | 0.031 | 28.5 |
| 2026-06-30T10:50 | 33.56427 | 179.89967 | 0.052 | 205.0 |
| 2026-06-30T11:00 | 33.56436 | 179.89968 | 0.034 | 1.5 |
| 2026-06-30T11:10 | 33.56440 | 179.89977 | 0.033 | 64.6 |
| 2026-06-30T11:20 | 33.55599 | 179.89752 | 3.096 | 192.6 |
| 2026-06-30T11:30 | 33.53495 | 179.87693 | 9.770 | 219.3 |
| 2026-06-30T11:40 | 33.51274 | 179.85564 | 10.229 | 218.8 |
| 2026-06-30T11:50 | 33.49050 | 179.83423 | 10.260 | 218.9 |
| 2026-06-30T12:00 | 33.46865 | 179.81266 | 10.184 | 219.6 |
| 2026-06-30T12:10 | 33.44680 | 179.79245 | 9.927 | 217.8 |
| 2026-06-30T12:20 | 33.42555 | 179.77322 | 9.582 | 217.2 |
| 2026-06-30T12:30 | 33.40397 | 179.75363 | 9.741 | 217.3 |
| 2026-06-30T12:40 | 33.38168 | 179.73328 | 10.082 | 217.4 |
| 2026-06-30T12:50 | 33.35923 | 179.71287 | 10.141 | 217.3 |
| 2026-06-30T13:00 | 33.33678 | 179.69246 | 10.141 | 217.3 |
| 2026-06-30T13:10 | 33.31438 | 179.67208 | 10.120 | 217.4 |
| 2026-06-30T13:20 | 33.29160 | 179.65138 | 10.293 | 217.3 |
| 2026-06-30T13:30 | 33.26890 | 179.63082 | 10.242 | 217.3 |
| 2026-06-30T13:40 | 33.24613 | 179.61012 | 10.288 | 217.4 |
| 2026-06-30T13:50 | 33.22385 | 179.58992 | 10.059 | 217.3 |
| 2026-06-30T14:00 | 33.21558 | 179.56428 | 8.292 | 249.0 |
| 2026-06-30T14:10 | 33.22312 | 179.53322 | 9.758 | 286.1 |
| 2026-06-30T14:20 | 33.22761 | 179.53392 | 1.627 | 7.5 |
| 2026-06-30T14:30 | 33.22763 | 179.53445 | 0.160 | 87.0 |
| 2026-06-30T14:40 | 33.22766 | 179.53483 | 0.114 | 84.6 |
| 2026-06-30T14:50 | 33.22772 | 179.53489 | 0.028 | 44.3 |
| 2026-06-30T15:00 | 33.22773 | 179.53488 | 0.006 | 313.6 |
| 2026-06-30T15:10 | 33.22764 | 179.53481 | 0.037 | 212.9 |
| 2026-06-30T15:20 | 33.22939 | 179.53477 | 0.626 | 359.1 |
| 2026-06-30T15:30 | 33.23217 | 179.53472 | 0.999 | 359.0 |
| 2026-06-30T15:40 | 33.23391 | 179.53466 | 0.624 | 358.5 |
| 2026-06-30T15:50 | 33.23389 | 179.53467 | 0.005 | 160.7 |
| 2026-06-30T16:00 | 33.23383 | 179.53466 | 0.022 | 182.3 |
| 2026-06-30T16:10 | 33.23376 | 179.53470 | 0.030 | 155.9 |
| 2026-06-30T16:20 | 33.23376 | 179.53477 | 0.020 | 81.8 |
| 2026-06-30T16:30 | 33.23373 | 179.53472 | 0.020 | 227.9 |
| 2026-06-30T16:40 | 33.23372 | 179.53473 | 0.002 | 108.8 |
| 2026-06-30T16:50 | 33.23372 | 179.53468 | 0.014 | 264.1 |
| 2026-06-30T17:00 | 33.23380 | 179.53475 | 0.037 | 34.6 |
| 2026-06-30T17:10 | 33.23381 | 179.53468 | 0.020 | 281.4 |
| 2026-06-30T17:20 | 33.23379 | 179.53470 | 0.010 | 158.0 |
| 2026-06-30T17:30 | 33.23371 | 179.53474 | 0.034 | 154.6 |
| 2026-06-30T17:40 | 33.23069 | 179.53675 | 1.238 | 150.8 |
| 2026-06-30T17:50 | 33.23134 | 179.50881 | 8.434 | 271.6 |
| 2026-06-30T18:00 | 33.22917 | 179.47630 | 9.843 | 265.5 |
| 2026-06-30T18:10 | 33.22637 | 179.44277 | 10.171 | 264.3 |
| 2026-06-30T18:20 | 33.22366 | 179.40891 | 10.265 | 264.6 |
| 2026-06-30T18:30 | 33.22091 | 179.37463 | 10.395 | 264.6 |
| 2026-06-30T18:40 | 33.21872 | 179.33990 | 10.511 | 265.7 |
| 2026-06-30T18:50 | 33.22389 | 179.30544 | 10.565 | 280.1 |
| 2026-06-30T19:00 | 33.22969 | 179.29262 | 4.396 | 298.3 |
| 2026-06-30T19:10 | 33.23003 | 179.29560 | 0.910 | 82.2 |
| 2026-06-30T19:20 | 33.23008 | 179.29564 | 0.020 | 32.8 |
| 2026-06-30T19:30 | 33.23006 | 179.29562 | 0.009 | 215.8 |
| 2026-06-30T19:40 | 33.22999 | 179.29562 | 0.024 | 180.7 |
| 2026-06-30T19:50 | 33.23009 | 179.29561 | 0.034 | 356.5 |
| 2026-06-30T20:00 | 33.22999 | 179.29563 | 0.036 | 171.4 |
| 2026-06-30T20:10 | 33.22998 | 179.29558 | 0.016 | 258.4 |
| 2026-06-30T20:20 | 33.23182 | 179.29361 | 0.889 | 318.0 |
| 2026-06-30T20:30 | 33.23336 | 179.29198 | 0.742 | 318.5 |
| 2026-06-30T20:40 | 33.23340 | 179.29201 | 0.016 | 29.3 |
| 2026-06-30T20:50 | 33.23337 | 179.29196 | 0.018 | 225.2 |
| 2026-06-30T21:00 | 33.23328 | 179.29199 | 0.033 | 163.8 |
| 2026-06-30T21:10 | 33.23328 | 179.29197 | 0.006 | 279.6 |
| 2026-06-30T21:20 | 33.23334 | 179.29200 | 0.020 | 21.6 |
| 2026-06-30T21:30 | 33.23334 | 179.29200 | 0.003 | 31.0 |
| 2026-06-30T21:40 | 33.23340 | 179.29199 | 0.022 | 349.7 |
| 2026-06-30T21:50 | 33.23341 | 179.29200 | 0.004 | 52.9 |
| 2026-06-30T22:00 | 33.23337 | 179.29198 | 0.015 | 201.8 |
| 2026-06-30T22:10 | 33.23335 | 179.29205 | 0.020 | 109.7 |
| 2026-06-30T22:20 | 33.23234 | 179.29581 | 1.192 | 107.7 |
| 2026-06-30T22:30 | 33.21382 | 179.27871 | 8.417 | 217.8 |
| 2026-06-30T22:40 | 33.19206 | 179.25767 | 10.073 | 219.1 |
| 2026-06-30T22:50 | 33.16992 | 179.23721 | 10.068 | 217.9 |
| 2026-06-30T23:00 | 33.14907 | 179.21499 | 10.056 | 221.9 |
| 2026-06-30T23:10 | 33.13067 | 179.19450 | 9.054 | 223.1 |
| 2026-06-30T23:20 | 33.12964 | 179.19840 | 1.235 | 107.4 |
| 2026-06-30T23:30 | 33.13013 | 179.19776 | 0.263 | 312.3 |
| 2026-06-30T23:40 | 33.13012 | 179.19781 | 0.016 | 112.8 |
| 2026-06-30T23:50 | 33.13011 | 179.19773 | 0.025 | 262.5 |
| 2026-07-01T00:00 | 33.13013 | 179.19781 | 0.025 | 73.5 |
| 2026-07-01T00:10 | 33.13010 | 179.19772 | 0.029 | 249.9 |
| 2026-07-01T00:20 | 33.13014 | 179.19776 | 0.018 | 43.8 |
| 2026-07-01T00:30 | 33.13005 | 179.19780 | 0.032 | 156.9 |
| 2026-07-01T00:40 | 33.13041 | 179.19767 | 0.135 | 342.9 |
| 2026-07-01T00:50 | 33.13317 | 179.19730 | 0.996 | 353.6 |
| 2026-07-01T01:00 | 33.13394 | 179.19721 | 0.278 | 354.7 |
| 2026-07-01T01:10 | 33.13395 | 179.19721 | 0.005 | 343.3 |
| 2026-07-01T01:20 | 33.13395 | 179.19723 | 0.005 | 103.4 |
| 2026-07-01T01:30 | 33.13398 | 179.19718 | 0.017 | 307.1 |
| 2026-07-01T01:40 | 33.13399 | 179.19720 | 0.008 | 48.8 |
| 2026-07-01T01:50 | 33.13392 | 179.19719 | 0.027 | 189.0 |
| 2026-07-01T02:00 | 33.13399 | 179.19719 | 0.025 | 4.8 |
| 2026-07-01T02:10 | 33.13401 | 179.19725 | 0.020 | 66.8 |
| 2026-07-01T02:20 | 33.13401 | 179.19722 | 0.010 | 259.1 |
| 2026-07-01T02:30 | 33.13397 | 179.19722 | 0.014 | 180.0 |
| 2026-07-01T02:40 | 33.13397 | 179.19724 | 0.006 | 90.0 |
| 2026-07-01T02:50 | 33.13402 | 179.19722 | 0.021 | 340.9 |
| 2026-07-01T03:00 | 33.13214 | 179.20450 | 2.300 | 107.1 |
| 2026-07-01T03:10 | 33.12203 | 179.23121 | 8.852 | 114.2 |
| 2026-07-01T03:20 | 33.12243 | 179.23680 | 1.696 | 85.0 |
| 2026-07-01T03:30 | 33.12244 | 179.23686 | 0.017 | 81.2 |
| 2026-07-01T03:40 | 33.12246 | 179.23687 | 0.008 | 30.5 |
| 2026-07-01T03:50 | 33.12248 | 179.23688 | 0.009 | 21.1 |
| 2026-07-01T04:00 | 33.12246 | 179.23692 | 0.014 | 121.4 |
| 2026-07-01T04:10 | 33.12253 | 179.23688 | 0.026 | 331.9 |
| 2026-07-01T04:20 | 33.12252 | 179.23683 | 0.016 | 260.7 |
| 2026-07-01T04:30 | 33.12249 | 179.23687 | 0.017 | 131.9 |
| 2026-07-01T04:40 | 33.12375 | 179.23666 | 0.456 | 351.9 |
| 2026-07-01T04:50 | 33.12652 | 179.23626 | 1.002 | 353.1 |
| 2026-07-01T05:00 | 33.12901 | 179.23591 | 0.902 | 353.2 |
| 2026-07-01T05:10 | 33.12914 | 179.23592 | 0.046 | 2.6 |
| 2026-07-01T05:20 | 33.12914 | 179.23589 | 0.007 | 285.1 |
| 2026-07-01T05:30 | 33.12905 | 179.23594 | 0.036 | 157.0 |
| 2026-07-01T05:40 | 33.12901 | 179.23599 | 0.020 | 134.0 |
| 2026-07-01T05:50 | 33.12902 | 179.23595 | 0.012 | 287.4 |
| 2026-07-01T06:00 | 33.12901 | 179.23598 | 0.010 | 119.0 |
| 2026-07-01T06:10 | 33.12911 | 179.23592 | 0.040 | 334.6 |
| 2026-07-01T06:20 | 33.12903 | 179.23588 | 0.031 | 204.1 |
| 2026-07-01T06:30 | 33.12902 | 179.23591 | 0.010 | 117.2 |
| 2026-07-01T06:40 | 33.12902 | 179.23591 | 0.002 | 22.8 |
| 2026-07-01T06:50 | 33.12901 | 179.23593 | 0.008 | 129.8 |
| 2026-07-01T07:00 | 33.12904 | 179.23588 | 0.019 | 298.9 |
| 2026-07-01T07:10 | 33.12907 | 179.23590 | 0.013 | 33.1 |
| 2026-07-01T07:20 | 33.12896 | 179.23612 | 0.076 | 120.4 |
| 2026-07-01T07:30 | 33.12237 | 179.22084 | 5.187 | 242.8 |
| 2026-07-01T07:40 | 33.11480 | 179.18819 | 10.236 | 254.6 |
| 2026-07-01T07:50 | 33.10737 | 179.15528 | 10.297 | 255.0 |
| 2026-07-01T08:00 | 33.10014 | 179.12267 | 10.192 | 255.3 |
| 2026-07-01T08:10 | 33.09283 | 179.09047 | 10.081 | 254.9 |
| 2026-07-01T08:20 | 33.08646 | 179.05808 | 10.053 | 256.9 |
| 2026-07-01T08:30 | 33.08029 | 179.02617 | 9.898 | 257.1 |
| 2026-07-01T08:40 | 33.07411 | 178.99581 | 9.446 | 256.4 |
| 2026-07-01T08:50 | 33.06965 | 178.99500 | 1.621 | 188.7 |
| 2026-07-01T09:00 | 33.07005 | 178.99488 | 0.148 | 346.1 |
| 2026-07-01T09:10 | 33.06997 | 178.99495 | 0.035 | 144.4 |
| 2026-07-01T09:20 | 33.06994 | 178.99496 | 0.012 | 174.3 |
| 2026-07-01T09:30 | 33.07001 | 178.99496 | 0.027 | 0.6 |
| 2026-07-01T09:40 | 33.06992 | 178.99490 | 0.036 | 205.9 |
| 2026-07-01T09:50 | 33.06993 | 178.99490 | 0.003 | 306.6 |
| 2026-07-01T10:00 | 33.06993 | 178.99485 | 0.015 | 279.4 |
| 2026-07-01T10:10 | 33.07000 | 178.99496 | 0.042 | 55.9 |
| 2026-07-01T10:20 | 33.07087 | 178.99488 | 0.315 | 355.5 |
| 2026-07-01T10:30 | 33.07322 | 178.99467 | 0.845 | 355.7 |
| 2026-07-01T10:40 | 33.07328 | 178.99465 | 0.024 | 346.9 |
| 2026-07-01T10:50 | 33.07325 | 178.99469 | 0.015 | 132.7 |
| 2026-07-01T11:00 | 33.07324 | 178.99468 | 0.006 | 207.8 |
| 2026-07-01T11:10 | 33.07328 | 178.99460 | 0.029 | 305.4 |
| 2026-07-01T11:20 | 33.07331 | 178.99467 | 0.023 | 65.1 |
| 2026-07-01T11:30 | 33.07325 | 178.99464 | 0.022 | 202.1 |
| 2026-07-01T11:40 | 33.07323 | 178.99472 | 0.024 | 105.7 |
| 2026-07-01T11:50 | 33.07325 | 178.99472 | 0.004 | 28.2 |
| 2026-07-01T12:00 | 33.07332 | 178.99465 | 0.035 | 323.3 |
| 2026-07-01T12:10 | 33.07327 | 178.99470 | 0.025 | 144.1 |
| 2026-07-01T12:20 | 33.07329 | 178.99467 | 0.013 | 310.0 |
| 2026-07-01T12:30 | 33.07331 | 178.99469 | 0.007 | 41.9 |
| 2026-07-01T12:40 | 33.07337 | 178.99328 | 0.426 | 273.2 |
| 2026-07-01T12:50 | 33.07383 | 178.99001 | 1.000 | 279.6 |
| 2026-07-01T13:00 | 33.07408 | 178.98829 | 0.530 | 279.7 |
| 2026-07-01T13:10 | 33.07408 | 178.98834 | 0.015 | 96.8 |
| 2026-07-01T13:20 | 33.07410 | 178.98832 | 0.009 | 319.9 |
| 2026-07-01T13:30 | 33.07413 | 178.98835 | 0.016 | 33.6 |
| 2026-07-01T13:40 | 33.07411 | 178.98824 | 0.032 | 255.9 |
| 2026-07-01T13:50 | 33.07413 | 178.98832 | 0.024 | 72.4 |
| 2026-07-01T14:00 | 33.07415 | 178.98830 | 0.008 | 314.7 |
| 2026-07-01T14:10 | 33.07408 | 178.98835 | 0.028 | 148.9 |
| 2026-07-01T14:20 | 33.07412 | 178.98825 | 0.033 | 298.0 |
| 2026-07-01T14:30 | 33.07504 | 178.98883 | 0.372 | 28.1 |
| 2026-07-01T14:40 | 33.07619 | 178.98942 | 0.451 | 23.1 |
| 2026-07-01T14:50 | 33.07618 | 178.98950 | 0.024 | 97.8 |
| 2026-07-01T15:00 | 33.07623 | 178.98950 | 0.016 | 5.3 |
| 2026-07-01T15:10 | 33.07618 | 178.98958 | 0.028 | 124.2 |
| 2026-07-01T15:20 | 33.07623 | 178.98950 | 0.027 | 303.3 |
| 2026-07-01T15:30 | 33.07616 | 178.98948 | 0.023 | 197.3 |
| 2026-07-01T15:40 | 33.07626 | 178.98954 | 0.039 | 26.3 |
| 2026-07-01T15:50 | 33.07617 | 178.98957 | 0.033 | 162.7 |
| 2026-07-01T16:00 | 33.07623 | 178.98947 | 0.037 | 307.4 |
| 2026-07-01T16:10 | 33.07621 | 178.98950 | 0.013 | 132.0 |
| 2026-07-01T16:20 | 33.07627 | 178.98946 | 0.026 | 328.6 |
| 2026-07-01T16:30 | 33.07620 | 178.98943 | 0.027 | 199.8 |
| 2026-07-01T16:40 | 33.08602 | 178.99531 | 3.950 | 26.8 |
| 2026-07-01T16:50 | 33.11093 | 179.00914 | 9.875 | 25.1 |
| 2026-07-01T17:00 | 33.13639 | 179.02312 | 10.070 | 24.8 |
| 2026-07-01T17:10 | 33.16186 | 179.03731 | 10.101 | 25.1 |
| 2026-07-01T17:20 | 33.18626 | 179.05208 | 9.831 | 27.0 |
| 2026-07-01T17:30 | 33.19008 | 179.06424 | 3.920 | 69.5 |
| 2026-07-01T17:40 | 33.18998 | 179.06443 | 0.069 | 121.2 |
| 2026-07-01T17:50 | 33.19002 | 179.06446 | 0.016 | 35.2 |
| 2026-07-01T18:00 | 33.18989 | 179.06444 | 0.046 | 190.3 |
| 2026-07-01T18:10 | 33.18996 | 179.06444 | 0.026 | 359.3 |
| 2026-07-01T18:20 | 33.19002 | 179.06446 | 0.023 | 18.3 |
| 2026-07-01T18:30 | 33.19000 | 179.06447 | 0.007 | 162.8 |
| 2026-07-01T18:40 | 33.18992 | 179.06441 | 0.035 | 206.5 |
| 2026-07-01T18:50 | 33.19026 | 179.06508 | 0.236 | 58.5 |
| 2026-07-01T19:00 | 33.19192 | 179.06775 | 1.003 | 53.4 |
| 2026-07-01T19:10 | 33.19344 | 179.07022 | 0.922 | 53.9 |
| 2026-07-01T19:20 | 33.19349 | 179.07029 | 0.029 | 52.5 |
| 2026-07-01T19:30 | 33.19352 | 179.07027 | 0.013 | 333.5 |
| 2026-07-01T19:40 | 33.19349 | 179.07027 | 0.009 | 188.0 |
| 2026-07-01T19:50 | 33.19353 | 179.07032 | 0.018 | 51.3 |
| 2026-07-01T20:00 | 33.19342 | 179.07027 | 0.039 | 202.8 |
| 2026-07-01T20:10 | 33.19342 | 179.07031 | 0.015 | 102.8 |
| 2026-07-01T20:20 | 33.19353 | 179.07023 | 0.046 | 328.2 |
| 2026-07-01T20:30 | 33.19353 | 179.07029 | 0.018 | 87.7 |
| 2026-07-01T20:40 | 33.19349 | 179.07031 | 0.015 | 162.1 |
| 2026-07-01T20:50 | 33.19347 | 179.07036 | 0.016 | 114.0 |
| 2026-07-01T21:00 | 33.19349 | 179.07030 | 0.019 | 292.6 |
| 2026-07-01T21:10 | 33.19346 | 179.07028 | 0.013 | 211.7 |
| 2026-07-01T21:20 | 33.19349 | 179.07033 | 0.021 | 54.2 |
| 2026-07-01T21:30 | 33.19124 | 179.07059 | 0.812 | 174.5 |
| 2026-07-01T21:40 | 33.18480 | 179.04363 | 8.462 | 254.1 |
| 2026-07-01T21:50 | 33.17740 | 179.01121 | 10.144 | 254.8 |
| 2026-07-01T22:00 | 33.17010 | 178.97846 | 10.233 | 255.2 |
| 2026-07-01T22:10 | 33.16287 | 178.94620 | 10.085 | 255.1 |
| 2026-07-01T22:20 | 33.15544 | 178.91367 | 10.182 | 254.8 |
| 2026-07-01T22:30 | 33.14819 | 178.88106 | 10.188 | 255.2 |
| 2026-07-01T22:40 | 33.14254 | 178.84847 | 10.053 | 258.4 |
| 2026-07-01T22:50 | 33.13759 | 178.81494 | 10.284 | 260.1 |
| 2026-07-01T23:00 | 33.13277 | 178.78200 | 10.102 | 260.1 |
| 2026-07-01T23:10 | 33.13259 | 178.74871 | 10.061 | 269.6 |
| 2026-07-01T23:20 | 33.13252 | 178.71588 | 9.917 | 269.9 |
| 2026-07-01T23:30 | 33.13253 | 178.68308 | 9.912 | 270.0 |
| 2026-07-01T23:40 | 33.13254 | 178.64998 | 10.000 | 270.0 |
| 2026-07-01T23:50 | 33.13251 | 178.61656 | 10.098 | 269.9 |
| 2026-07-02T00:00 | 33.13245 | 178.58284 | 10.189 | 269.9 |
| 2026-07-02T00:10 | 33.13108 | 178.54906 | 10.219 | 267.2 |
| 2026-07-02T00:20 | 33.12624 | 178.51544 | 10.304 | 260.3 |
| 2026-07-02T00:30 | 33.12124 | 178.48170 | 10.353 | 260.0 |
| 2026-07-02T00:40 | 33.11624 | 178.44759 | 10.466 | 260.1 |
| 2026-07-02T00:50 | 33.10665 | 178.41587 | 10.184 | 250.3 |
| 2026-07-02T01:00 | 33.10389 | 178.38407 | 9.663 | 264.1 |
| 2026-07-02T01:10 | 33.12820 | 178.38262 | 8.742 | 357.1 |
| 2026-07-02T01:20 | 33.13838 | 178.41145 | 9.446 | 67.2 |
| 2026-07-02T01:30 | 33.13882 | 178.44275 | 9.460 | 89.0 |
| 2026-07-02T01:40 | 33.13914 | 178.46996 | 8.221 | 89.2 |
| 2026-07-02T01:50 | 33.13924 | 178.47248 | 0.760 | 87.4 |
| 2026-07-02T02:00 | 33.13924 | 178.47247 | 0.002 | 279.6 |
| 2026-07-02T02:10 | 33.13924 | 178.47245 | 0.004 | 288.8 |
| 2026-07-02T02:20 | 33.13917 | 178.47253 | 0.037 | 139.9 |
| 2026-07-02T02:30 | 33.13919 | 178.47246 | 0.023 | 288.0 |
| 2026-07-02T02:40 | 33.13925 | 178.47244 | 0.023 | 344.6 |
| 2026-07-02T02:50 | 33.13923 | 178.47252 | 0.025 | 104.0 |
| 2026-07-02T03:00 | 33.13921 | 178.47249 | 0.011 | 234.5 |
| 2026-07-02T03:10 | 33.14053 | 178.47070 | 0.719 | 311.2 |
| 2026-07-02T03:20 | 33.14223 | 178.46825 | 0.959 | 309.5 |
| 2026-07-02T03:30 | 33.14224 | 178.46813 | 0.036 | 273.5 |
| 2026-07-02T03:40 | 33.14226 | 178.46820 | 0.022 | 62.9 |
| 2026-07-02T03:50 | 33.14226 | 178.46821 | 0.003 | 128.4 |
| 2026-07-02T04:00 | 33.14229 | 178.46817 | 0.018 | 318.4 |
| 2026-07-02T04:10 | 33.14227 | 178.46811 | 0.019 | 245.3 |
| 2026-07-02T04:20 | 33.14224 | 178.46811 | 0.013 | 184.0 |
| 2026-07-02T04:30 | 33.14227 | 178.46812 | 0.011 | 17.7 |
| 2026-07-02T04:40 | 33.14225 | 178.46812 | 0.008 | 164.3 |
| 2026-07-02T04:50 | 33.14231 | 178.46814 | 0.023 | 9.0 |
| 2026-07-02T05:00 | 33.14229 | 178.46818 | 0.016 | 120.7 |
| 2026-07-02T05:10 | 33.14228 | 178.46821 | 0.008 | 111.6 |
| 2026-07-02T05:20 | 33.14222 | 178.46818 | 0.021 | 202.4 |
| 2026-07-02T05:30 | 33.12833 | 178.45793 | 5.873 | 211.8 |
| 2026-07-02T05:40 | 33.10691 | 178.43662 | 10.030 | 219.9 |
| 2026-07-02T05:50 | 33.08585 | 178.41547 | 9.904 | 220.2 |
| 2026-07-02T06:00 | 33.06470 | 178.39433 | 9.926 | 220.1 |
| 2026-07-02T06:10 | 33.04336 | 178.37265 | 10.085 | 220.6 |
| 2026-07-02T06:20 | 33.02227 | 178.35089 | 10.035 | 221.0 |
| 2026-07-02T06:30 | 33.00091 | 178.32880 | 10.173 | 221.1 |
| 2026-07-02T06:40 | 32.97919 | 178.30658 | 10.299 | 220.8 |
| 2026-07-02T06:50 | 32.95899 | 178.28258 | 10.265 | 225.0 |
| 2026-07-02T07:00 | 32.93925 | 178.25967 | 9.921 | 224.4 |
| 2026-07-02T07:10 | 32.93092 | 178.25719 | 3.084 | 194.1 |
| 2026-07-02T07:20 | 32.93050 | 178.25723 | 0.149 | 175.5 |
| 2026-07-02T07:30 | 32.93047 | 178.25731 | 0.026 | 119.0 |
| 2026-07-02T07:40 | 32.93050 | 178.25727 | 0.016 | 315.6 |
| 2026-07-02T07:50 | 32.93046 | 178.25724 | 0.019 | 210.9 |
| 2026-07-02T08:00 | 32.93052 | 178.25720 | 0.027 | 337.4 |
| 2026-07-02T08:10 | 32.93047 | 178.25729 | 0.032 | 130.3 |
| 2026-07-02T08:20 | 32.93047 | 178.25719 | 0.029 | 273.5 |
| 2026-07-02T08:30 | 32.93050 | 178.25732 | 0.041 | 74.7 |
| 2026-07-02T08:40 | 32.93063 | 178.25735 | 0.046 | 10.5 |
| 2026-07-02T08:50 | 32.93331 | 178.25763 | 0.967 | 5.1 |
| 2026-07-02T09:00 | 32.93403 | 178.25775 | 0.262 | 7.7 |
| 2026-07-02T09:10 | 32.93400 | 178.25774 | 0.010 | 195.7 |
| 2026-07-02T09:20 | 32.93402 | 178.25773 | 0.004 | 341.4 |
| 2026-07-02T09:30 | 32.93405 | 178.25774 | 0.014 | 6.2 |
| 2026-07-02T09:40 | 32.93405 | 178.25769 | 0.015 | 259.3 |
| 2026-07-02T09:50 | 32.93404 | 178.25764 | 0.014 | 267.1 |
| 2026-07-02T10:00 | 32.93407 | 178.25764 | 0.009 | 0.0 |
| 2026-07-02T10:10 | 32.93407 | 178.25776 | 0.036 | 87.2 |
| 2026-07-02T10:20 | 32.93406 | 178.25775 | 0.005 | 204.4 |
| 2026-07-02T10:30 | 32.93405 | 178.25766 | 0.029 | 262.1 |
| 2026-07-02T10:40 | 32.93398 | 178.25765 | 0.024 | 184.4 |
| 2026-07-02T10:50 | 32.93405 | 178.25764 | 0.024 | 351.3 |
| 2026-07-02T11:00 | 32.93398 | 178.25765 | 0.025 | 174.3 |
| 2026-07-02T11:10 | 32.92551 | 178.25872 | 3.057 | 173.9 |
| 2026-07-02T11:20 | 32.94162 | 178.24604 | 6.942 | 326.4 |
| 2026-07-02T11:30 | 32.96959 | 178.23973 | 10.225 | 349.2 |
| 2026-07-02T11:40 | 32.99750 | 178.23293 | 10.231 | 348.4 |
| 2026-07-02T11:50 | 33.02537 | 178.22615 | 10.218 | 348.4 |
| 2026-07-02T12:00 | 33.05209 | 178.21954 | 9.800 | 348.2 |
| 2026-07-02T12:10 | 33.07871 | 178.21298 | 9.765 | 348.3 |
| 2026-07-02T12:20 | 33.10492 | 178.20587 | 9.653 | 347.1 |
| 2026-07-02T12:30 | 33.12608 | 178.19907 | 7.872 | 344.9 |
| 2026-07-02T12:40 | 33.12436 | 178.20314 | 1.376 | 116.7 |
| 2026-07-02T12:50 | 33.12353 | 178.20361 | 0.329 | 154.8 |
| 2026-07-02T13:00 | 33.12358 | 178.20358 | 0.021 | 340.3 |
| 2026-07-02T13:10 | 33.12355 | 178.20367 | 0.031 | 114.9 |
| 2026-07-02T13:20 | 33.12349 | 178.20362 | 0.026 | 217.0 |
| 2026-07-02T13:30 | 33.12481 | 178.20359 | 0.474 | 358.9 |
| 2026-07-02T13:40 | 33.12758 | 178.20360 | 0.996 | 0.1 |
| 2026-07-02T13:50 | 33.12855 | 178.20359 | 0.350 | 359.6 |
| 2026-07-02T14:00 | 33.12855 | 178.20359 | 0.003 | 233.4 |
| 2026-07-02T14:10 | 33.12855 | 178.20359 | 0.000 | 319.9 |
| 2026-07-02T14:20 | 33.12861 | 178.20361 | 0.024 | 20.2 |
| 2026-07-02T14:30 | 33.12863 | 178.20361 | 0.005 | 345.5 |
| 2026-07-02T14:40 | 33.12862 | 178.20365 | 0.014 | 97.5 |
| 2026-07-02T14:50 | 33.12862 | 178.20360 | 0.018 | 268.8 |
| 2026-07-02T15:00 | 33.12850 | 178.20360 | 0.043 | 176.8 |
| 2026-07-02T15:10 | 33.12852 | 178.20362 | 0.010 | 37.5 |
| 2026-07-02T15:20 | 33.12854 | 178.20362 | 0.006 | 333.2 |
| 2026-07-02T15:30 | 33.12859 | 178.20358 | 0.020 | 326.6 |
| 2026-07-02T15:40 | 33.12469 | 178.18916 | 4.576 | 252.2 |
| 2026-07-02T15:50 | 33.12498 | 178.15429 | 10.537 | 270.6 |
| 2026-07-02T16:00 | 33.12501 | 178.11912 | 10.630 | 270.1 |
| 2026-07-02T16:10 | 33.12499 | 178.08343 | 10.783 | 270.0 |
| 2026-07-02T16:20 | 33.12496 | 178.04822 | 10.641 | 270.0 |
| 2026-07-02T16:30 | 33.12506 | 178.01206 | 10.926 | 270.2 |
| 2026-07-02T16:40 | 33.13868 | 177.98382 | 9.835 | 299.8 |
| 2026-07-02T16:50 | 33.15955 | 177.95894 | 10.616 | 314.9 |
| 2026-07-02T17:00 | 33.18028 | 177.93406 | 10.577 | 314.7 |
| 2026-07-02T17:10 | 33.20096 | 177.90946 | 10.503 | 315.0 |
| 2026-07-02T17:20 | 33.22194 | 177.88440 | 10.677 | 314.9 |
| 2026-07-02T17:30 | 33.24316 | 177.85894 | 10.823 | 314.8 |
| 2026-07-02T17:40 | 33.26394 | 177.83419 | 10.556 | 315.0 |
| 2026-07-02T17:50 | 33.28498 | 177.80913 | 10.689 | 315.0 |
| 2026-07-02T18:00 | 33.30594 | 177.78411 | 10.657 | 314.9 |
| 2026-07-02T18:10 | 33.32518 | 177.75732 | 10.632 | 310.6 |
| 2026-07-02T18:20 | 33.32803 | 177.72327 | 10.316 | 275.7 |
| 2026-07-02T18:30 | 33.32796 | 177.68943 | 10.200 | 269.9 |
| 2026-07-02T18:40 | 33.32802 | 177.65338 | 10.870 | 270.1 |
| 2026-07-02T18:50 | 33.32804 | 177.61895 | 10.380 | 270.1 |
| 2026-07-02T19:00 | 33.32803 | 177.58406 | 10.518 | 270.0 |
| 2026-07-02T19:10 | 33.32805 | 177.54870 | 10.658 | 270.1 |
| 2026-07-02T19:20 | 33.32804 | 177.51368 | 10.558 | 270.0 |
| 2026-07-02T19:30 | 33.32813 | 177.47880 | 10.517 | 270.2 |
| 2026-07-02T19:40 | 33.32807 | 177.44395 | 10.506 | 269.9 |
| 2026-07-02T19:50 | 33.32800 | 177.41008 | 10.212 | 269.9 |
| 2026-07-02T20:00 | 33.32803 | 177.37612 | 10.237 | 270.1 |
| 2026-07-02T20:10 | 33.32806 | 177.34206 | 10.267 | 270.1 |
| 2026-07-02T20:20 | 33.32806 | 177.30754 | 10.409 | 270.0 |
| 2026-07-02T20:30 | 33.32807 | 177.27237 | 10.603 | 270.0 |
| 2026-07-02T20:40 | 33.32812 | 177.23781 | 10.417 | 270.1 |
| 2026-07-02T20:50 | 33.32958 | 177.20907 | 8.681 | 273.5 |
| 2026-07-02T21:00 | 33.33284 | 177.23165 | 6.908 | 80.2 |
| 2026-07-02T21:10 | 33.32939 | 177.26327 | 9.614 | 97.4 |
| 2026-07-02T21:20 | 33.32630 | 177.28812 | 7.572 | 98.4 |
| 2026-07-02T21:30 | 33.32600 | 177.29221 | 1.239 | 95.1 |
| 2026-07-02T21:40 | 33.32587 | 177.29286 | 0.200 | 103.5 |
| 2026-07-02T21:50 | 33.32585 | 177.29287 | 0.008 | 145.0 |
| 2026-07-02T22:00 | 33.32582 | 177.29288 | 0.012 | 162.0 |
| 2026-07-02T22:10 | 33.32584 | 177.29285 | 0.013 | 304.1 |
| 2026-07-02T22:20 | 33.32587 | 177.29289 | 0.017 | 55.6 |
| 2026-07-02T22:30 | 33.32585 | 177.29284 | 0.017 | 256.4 |
| 2026-07-02T22:40 | 33.32802 | 177.29235 | 0.792 | 349.2 |
| 2026-07-02T22:50 | 33.33026 | 177.29186 | 0.818 | 349.6 |
| 2026-07-02T23:00 | 33.33032 | 177.29186 | 0.023 | 3.0 |
| 2026-07-02T23:10 | 33.33022 | 177.29186 | 0.036 | 181.4 |
| 2026-07-02T23:20 | 33.33024 | 177.29185 | 0.008 | 344.4 |
| 2026-07-02T23:30 | 33.33030 | 177.29192 | 0.028 | 44.3 |
| 2026-07-02T23:40 | 33.33022 | 177.29190 | 0.030 | 192.3 |
| 2026-07-02T23:50 | 33.33028 | 177.29190 | 0.024 | 359.3 |
| 2026-07-03T00:00 | 33.33029 | 177.29191 | 0.004 | 49.1 |
| 2026-07-03T00:10 | 33.33026 | 177.29194 | 0.016 | 138.4 |
| 2026-07-03T00:20 | 33.33023 | 177.29192 | 0.013 | 216.8 |
| 2026-07-03T00:30 | 33.33023 | 177.29187 | 0.016 | 270.0 |
| 2026-07-03T00:40 | 33.32907 | 177.29417 | 0.811 | 121.0 |
| 2026-07-03T00:50 | 33.30885 | 177.28356 | 7.932 | 203.8 |
| 2026-07-03T01:00 | 33.28731 | 177.26265 | 9.980 | 219.2 |
| 2026-07-03T01:10 | 33.27876 | 177.25920 | 3.243 | 198.7 |
| 2026-07-03T01:20 | 33.27863 | 177.26040 | 0.366 | 97.3 |
| 2026-07-03T01:30 | 33.27858 | 177.26040 | 0.018 | 181.9 |
| 2026-07-03T01:40 | 33.27864 | 177.26049 | 0.035 | 50.3 |
| 2026-07-03T01:50 | 33.27862 | 177.26042 | 0.021 | 245.3 |
| 2026-07-03T02:00 | 33.27860 | 177.26045 | 0.008 | 130.4 |
| 2026-07-03T02:10 | 33.27864 | 177.26044 | 0.014 | 355.1 |
| 2026-07-03T02:20 | 33.27867 | 177.26045 | 0.009 | 17.5 |
| 2026-07-03T02:30 | 33.28025 | 177.26028 | 0.569 | 354.7 |
| 2026-07-03T02:40 | 33.28238 | 177.26005 | 0.768 | 355.0 |
| 2026-07-03T02:50 | 33.28236 | 177.26003 | 0.010 | 229.0 |
| 2026-07-03T03:00 | 33.28230 | 177.26006 | 0.023 | 152.3 |
| 2026-07-03T03:10 | 33.28236 | 177.26007 | 0.023 | 5.3 |
| 2026-07-03T03:20 | 33.28237 | 177.26008 | 0.002 | 51.6 |
| 2026-07-03T03:30 | 33.28226 | 177.26006 | 0.039 | 187.5 |
| 2026-07-03T03:40 | 33.28238 | 177.26003 | 0.043 | 349.5 |
| 2026-07-03T03:50 | 33.28232 | 177.26010 | 0.030 | 135.1 |
| 2026-07-03T04:00 | 33.28230 | 177.26009 | 0.008 | 226.8 |
| 2026-07-03T04:10 | 33.28232 | 177.26006 | 0.010 | 300.8 |
| 2026-07-03T04:20 | 33.28231 | 177.26002 | 0.011 | 246.6 |
| 2026-07-03T04:30 | 33.27929 | 177.26102 | 1.122 | 164.4 |
| 2026-07-03T04:40 | 33.29327 | 177.23823 | 8.513 | 306.1 |
| 2026-07-03T04:50 | 33.30788 | 177.20905 | 10.243 | 300.8 |
| 2026-07-03T05:00 | 33.30803 | 177.17499 | 10.271 | 270.3 |
| 2026-07-03T05:10 | 33.30803 | 177.13978 | 10.619 | 270.0 |
| 2026-07-03T05:20 | 33.30798 | 177.10417 | 10.738 | 269.9 |
| 2026-07-03T05:30 | 33.30794 | 177.06944 | 10.471 | 269.9 |
| 2026-07-03T05:40 | 33.30802 | 177.03645 | 9.950 | 270.2 |
| 2026-07-03T05:50 | 33.30798 | 177.00359 | 9.908 | 269.9 |
| 2026-07-03T06:00 | 33.30806 | 176.96985 | 10.173 | 270.1 |
| 2026-07-03T06:10 | 33.30803 | 176.93613 | 10.169 | 269.9 |
| 2026-07-03T06:20 | 33.30800 | 176.90183 | 10.343 | 270.0 |
| 2026-07-03T06:30 | 33.30794 | 176.86712 | 10.467 | 269.9 |
| 2026-07-03T06:40 | 33.30307 | 176.83505 | 9.828 | 259.8 |
| 2026-07-03T06:50 | 33.27728 | 176.82979 | 9.396 | 189.7 |
| 2026-07-03T07:00 | 33.25430 | 176.84020 | 8.831 | 159.2 |
| 2026-07-03T07:10 | 33.25210 | 176.87153 | 9.486 | 94.8 |
| 2026-07-03T07:20 | 33.25180 | 176.90304 | 9.508 | 90.6 |
| 2026-07-03T07:30 | 33.25160 | 176.92432 | 6.420 | 90.6 |
| 2026-07-03T07:40 | 33.26574 | 176.90260 | 8.290 | 307.8 |
| 2026-07-03T07:50 | 33.27661 | 176.89334 | 4.799 | 324.4 |
| 2026-07-03T08:00 | 33.27607 | 176.89388 | 0.255 | 140.5 |
| 2026-07-03T08:10 | 33.27590 | 176.89353 | 0.123 | 240.8 |
| 2026-07-03T08:20 | 33.27580 | 176.89347 | 0.038 | 204.7 |
| 2026-07-03T08:30 | 33.27582 | 176.89354 | 0.020 | 71.5 |
| 2026-07-03T08:40 | 33.27582 | 176.89358 | 0.012 | 81.5 |
| 2026-07-03T08:50 | 33.27609 | 176.89347 | 0.101 | 341.7 |
| 2026-07-03T09:00 | 33.27885 | 176.89296 | 1.004 | 351.2 |
| 2026-07-03T09:10 | 33.28159 | 176.89252 | 0.992 | 352.3 |
| 2026-07-03T09:20 | 33.28239 | 176.89239 | 0.289 | 352.4 |
| 2026-07-03T09:30 | 33.28236 | 176.89239 | 0.008 | 192.4 |
| 2026-07-03T09:40 | 33.28231 | 176.89238 | 0.018 | 184.8 |
| 2026-07-03T09:50 | 33.28229 | 176.89237 | 0.008 | 200.7 |
| 2026-07-03T10:00 | 33.28235 | 176.89238 | 0.019 | 11.0 |
| 2026-07-03T10:10 | 33.28237 | 176.89234 | 0.015 | 307.1 |
| 2026-07-03T10:20 | 33.28234 | 176.89230 | 0.018 | 235.2 |
| 2026-07-03T10:30 | 33.28227 | 176.89235 | 0.032 | 148.2 |
| 2026-07-03T10:40 | 33.28233 | 176.89235 | 0.021 | 358.3 |
| 2026-07-03T10:50 | 33.28235 | 176.89242 | 0.024 | 65.6 |
| 2026-07-03T11:00 | 33.28181 | 176.89344 | 0.362 | 122.3 |
| 2026-07-03T11:10 | 33.26506 | 176.88457 | 6.586 | 204.0 |
| 2026-07-03T11:20 | 33.24371 | 176.86269 | 10.117 | 220.7 |
| 2026-07-03T11:30 | 33.22236 | 176.84090 | 10.099 | 220.6 |
| 2026-07-03T11:40 | 33.20069 | 176.81916 | 10.183 | 220.2 |
| 2026-07-03T11:50 | 33.17889 | 176.79743 | 10.213 | 220.0 |
| 2026-07-03T12:00 | 33.15717 | 176.77567 | 10.202 | 220.1 |
| 2026-07-03T12:10 | 33.13563 | 176.75435 | 10.066 | 219.8 |
| 2026-07-03T12:20 | 33.11404 | 176.73287 | 10.113 | 219.9 |
| 2026-07-03T12:30 | 33.10051 | 176.70615 | 9.423 | 239.0 |
| 2026-07-03T12:40 | 33.10061 | 176.67369 | 9.811 | 270.2 |
| 2026-07-03T12:50 | 33.10057 | 176.64123 | 9.812 | 269.9 |
| 2026-07-03T13:00 | 33.10063 | 176.60747 | 10.202 | 270.1 |
| 2026-07-03T13:10 | 33.10052 | 176.57350 | 10.270 | 269.8 |
| 2026-07-03T13:20 | 33.10823 | 176.56513 | 3.751 | 317.6 |
| 2026-07-03T13:30 | 33.10290 | 176.59284 | 8.590 | 102.9 |
| 2026-07-03T13:40 | 33.09915 | 176.61761 | 7.607 | 100.2 |
| 2026-07-03T13:50 | 33.09733 | 176.62079 | 1.164 | 124.2 |
| 2026-07-03T14:00 | 33.09743 | 176.62119 | 0.125 | 72.9 |
| 2026-07-03T14:10 | 33.09741 | 176.62123 | 0.016 | 119.0 |
| 2026-07-03T14:20 | 33.09735 | 176.62124 | 0.021 | 172.7 |
| 2026-07-03T14:30 | 33.09737 | 176.62118 | 0.019 | 289.6 |
| 2026-07-03T14:40 | 33.09735 | 176.62113 | 0.017 | 245.7 |
| 2026-07-03T14:50 | 33.09777 | 176.62095 | 0.158 | 340.0 |
| 2026-07-03T15:00 | 33.10036 | 176.61972 | 1.002 | 338.2 |
| 2026-07-03T15:10 | 33.10294 | 176.61850 | 0.998 | 338.3 |
| 2026-07-03T15:20 | 33.10361 | 176.61816 | 0.261 | 337.0 |
| 2026-07-03T15:30 | 33.10357 | 176.61819 | 0.014 | 143.6 |
| 2026-07-03T15:40 | 33.10365 | 176.61819 | 0.028 | 1.2 |
| 2026-07-03T15:50 | 33.10363 | 176.61822 | 0.013 | 133.8 |
| 2026-07-03T16:00 | 33.10357 | 176.61819 | 0.022 | 208.6 |
| 2026-07-03T16:10 | 33.10354 | 176.61815 | 0.017 | 223.9 |
| 2026-07-03T16:20 | 33.10356 | 176.61820 | 0.016 | 69.6 |
| 2026-07-03T16:30 | 33.10354 | 176.61815 | 0.016 | 251.6 |
Only the first 2000 rows were shown. To view the complete dataset, download it as tab-delimited text. You can still view the full matrix in your browser, but be aware that this may crash the browser due to the huge size.
